<?xml version="1.0" encoding="UTF-8" standalone="no" ?>
<gpx xmlns="http://www.topografix.com/GPX/1/1" xmlns:xsi="http://www.w3.org/2001/XMLSchema-instance" xsi:schemaLocation="http://www.topografix.com/GPX/1/1 http://www.topografix.com/GPX/1/1/gpx.xsd" version="1.1" creator="VisuGPX - https://www.visugpx.com">
  <metadata>
    <name>Réservoirs de Piraillan- sentier dune</name>
    <desc><![CDATA[Randonnée facile à faire marée haute ( sentier dune parallèle à l'océan]]></desc>
  </metadata>
  <trk>
    <name><![CDATA[PIRAILLAN 1:27:39]]></name>
    <extensions>
      <line xmlns="http://www.topografix.com/GPX/gpx_style/0/2">
        <color>0000FF</color>
        <width>4</width>
      </line>
    </extensions>
    <trkseg>
      <trkpt lat="44.71152" lon="-1.22062">
        <ele>-20.05</ele>
        <time>2024-07-11T07:01:42Z</time>
      </trkpt>
      <trkpt lat="44.71153" lon="-1.22064">
        <ele>-20.05</ele>
        <time>2024-07-11T07:01:54Z</time>
      </trkpt>
      <trkpt lat="44.71153" lon="-1.22062">
        <ele>-20.05</ele>
        <time>2024-07-11T07:02:09Z</time>
      </trkpt>
      <trkpt lat="44.71151" lon="-1.2206">
        <ele>-20.05</ele>
        <time>2024-07-11T07:02:22Z</time>
      </trkpt>
      <trkpt lat="44.7115" lon="-1.22056">
        <ele>-19.57</ele>
        <time>2024-07-11T07:02:50Z</time>
      </trkpt>
      <trkpt lat="44.71147" lon="-1.22053">
        <ele>-20.05</ele>
        <time>2024-07-11T07:03:02Z</time>
      </trkpt>
      <trkpt lat="44.71152" lon="-1.22045">
        <ele>-20.05</ele>
        <time>2024-07-11T07:03:17Z</time>
      </trkpt>
      <trkpt lat="44.71152" lon="-1.2204">
        <ele>-19.57</ele>
        <time>2024-07-11T07:03:32Z</time>
      </trkpt>
      <trkpt lat="44.71152" lon="-1.22037">
        <ele>-20.05</ele>
        <time>2024-07-11T07:03:34Z</time>
      </trkpt>
      <trkpt lat="44.71151" lon="-1.22029">
        <ele>-19.57</ele>
        <time>2024-07-11T07:03:43Z</time>
      </trkpt>
      <trkpt lat="44.71152" lon="-1.22031">
        <ele>-19.57</ele>
        <time>2024-07-11T07:03:55Z</time>
      </trkpt>
      <trkpt lat="44.71154" lon="-1.22034">
        <ele>-18.61</ele>
        <time>2024-07-11T07:03:59Z</time>
      </trkpt>
      <trkpt lat="44.71155" lon="-1.22037">
        <ele>-21.97</ele>
        <time>2024-07-11T07:04:14Z</time>
      </trkpt>
      <trkpt lat="44.71167" lon="-1.22038">
        <ele>-19.57</ele>
        <time>2024-07-11T07:06:07Z</time>
      </trkpt>
      <trkpt lat="44.71165" lon="-1.22039">
        <ele>-20.05</ele>
        <time>2024-07-11T07:06:25Z</time>
      </trkpt>
      <trkpt lat="44.71163" lon="-1.2204">
        <ele>-19.57</ele>
        <time>2024-07-11T07:06:37Z</time>
      </trkpt>
      <trkpt lat="44.71162" lon="-1.22049">
        <ele>-19.57</ele>
        <time>2024-07-11T07:06:50Z</time>
      </trkpt>
      <trkpt lat="44.71165" lon="-1.22049">
        <ele>-20.53</ele>
        <time>2024-07-11T07:07:03Z</time>
      </trkpt>
      <trkpt lat="44.71159" lon="-1.2204">
        <ele>-20.05</ele>
        <time>2024-07-11T07:07:15Z</time>
      </trkpt>
      <trkpt lat="44.71155" lon="-1.22045">
        <ele>-20.05</ele>
        <time>2024-07-11T07:07:29Z</time>
      </trkpt>
      <trkpt lat="44.71151" lon="-1.22041">
        <ele>-20.53</ele>
        <time>2024-07-11T07:07:43Z</time>
      </trkpt>
      <trkpt lat="44.71147" lon="-1.22037">
        <ele>-20.53</ele>
        <time>2024-07-11T07:07:56Z</time>
      </trkpt>
      <trkpt lat="44.71146" lon="-1.22043">
        <ele>-20.53</ele>
        <time>2024-07-11T07:08:09Z</time>
      </trkpt>
      <trkpt lat="44.71145" lon="-1.22048">
        <ele>-20.05</ele>
        <time>2024-07-11T07:08:20Z</time>
      </trkpt>
      <trkpt lat="44.71148" lon="-1.22049">
        <ele>-20.53</ele>
        <time>2024-07-11T07:08:37Z</time>
      </trkpt>
      <trkpt lat="44.71148" lon="-1.22052">
        <ele>-20.53</ele>
        <time>2024-07-11T07:08:52Z</time>
      </trkpt>
      <trkpt lat="44.71153" lon="-1.22049">
        <ele>-20.53</ele>
        <time>2024-07-11T07:09:01Z</time>
      </trkpt>
      <trkpt lat="44.7116" lon="-1.22035">
        <ele>-20.53</ele>
        <time>2024-07-11T07:09:11Z</time>
      </trkpt>
      <trkpt lat="44.71166" lon="-1.22023">
        <ele>-20.05</ele>
        <time>2024-07-11T07:09:21Z</time>
      </trkpt>
      <trkpt lat="44.71174" lon="-1.22019">
        <ele>-19.57</ele>
        <time>2024-07-11T07:09:33Z</time>
      </trkpt>
      <trkpt lat="44.71181" lon="-1.22023">
        <ele>-20.05</ele>
        <time>2024-07-11T07:09:43Z</time>
      </trkpt>
      <trkpt lat="44.71197" lon="-1.22025">
        <ele>-20.05</ele>
        <time>2024-07-11T07:09:54Z</time>
      </trkpt>
      <trkpt lat="44.71208" lon="-1.22028">
        <ele>-20.53</ele>
        <time>2024-07-11T07:10:04Z</time>
      </trkpt>
      <trkpt lat="44.71214" lon="-1.22038">
        <ele>-20.53</ele>
        <time>2024-07-11T07:10:13Z</time>
      </trkpt>
      <trkpt lat="44.71221" lon="-1.22056">
        <ele>-20.53</ele>
        <time>2024-07-11T07:10:27Z</time>
      </trkpt>
      <trkpt lat="44.71223" lon="-1.22059">
        <ele>-19.09</ele>
        <time>2024-07-11T07:10:30Z</time>
      </trkpt>
      <trkpt lat="44.7123" lon="-1.22074">
        <ele>-18.13</ele>
        <time>2024-07-11T07:10:41Z</time>
      </trkpt>
      <trkpt lat="44.7124" lon="-1.22091">
        <ele>-19.57</ele>
        <time>2024-07-11T07:10:52Z</time>
      </trkpt>
      <trkpt lat="44.71248" lon="-1.22106">
        <ele>-21.01</ele>
        <time>2024-07-11T07:11:04Z</time>
      </trkpt>
      <trkpt lat="44.71256" lon="-1.22121">
        <ele>-21.01</ele>
        <time>2024-07-11T07:11:15Z</time>
      </trkpt>
      <trkpt lat="44.71261" lon="-1.22133">
        <ele>-20.53</ele>
        <time>2024-07-11T07:11:22Z</time>
      </trkpt>
      <trkpt lat="44.71271" lon="-1.22152">
        <ele>-20.05</ele>
        <time>2024-07-11T07:11:35Z</time>
      </trkpt>
      <trkpt lat="44.71281" lon="-1.22168">
        <ele>-20.05</ele>
        <time>2024-07-11T07:11:47Z</time>
      </trkpt>
      <trkpt lat="44.71286" lon="-1.22183">
        <ele>-20.05</ele>
        <time>2024-07-11T07:11:55Z</time>
      </trkpt>
      <trkpt lat="44.71292" lon="-1.22202">
        <ele>-20.05</ele>
        <time>2024-07-11T07:12:07Z</time>
      </trkpt>
      <trkpt lat="44.71302" lon="-1.22218">
        <ele>-20.53</ele>
        <time>2024-07-11T07:12:18Z</time>
      </trkpt>
      <trkpt lat="44.71313" lon="-1.22232">
        <ele>-20.53</ele>
        <time>2024-07-11T07:12:28Z</time>
      </trkpt>
      <trkpt lat="44.7132" lon="-1.2225">
        <ele>-19.57</ele>
        <time>2024-07-11T07:12:39Z</time>
      </trkpt>
      <trkpt lat="44.71326" lon="-1.22261">
        <ele>-20.05</ele>
        <time>2024-07-11T07:12:49Z</time>
      </trkpt>
      <trkpt lat="44.71333" lon="-1.22274">
        <ele>-19.57</ele>
        <time>2024-07-11T07:13:00Z</time>
      </trkpt>
      <trkpt lat="44.71334" lon="-1.2228">
        <ele>-21.01</ele>
        <time>2024-07-11T07:13:03Z</time>
      </trkpt>
      <trkpt lat="44.71331" lon="-1.22302">
        <ele>-20.05</ele>
        <time>2024-07-11T07:13:15Z</time>
      </trkpt>
      <trkpt lat="44.71328" lon="-1.22324">
        <ele>-21.49</ele>
        <time>2024-07-11T07:13:28Z</time>
      </trkpt>
      <trkpt lat="44.71328" lon="-1.22327">
        <ele>-21.01</ele>
        <time>2024-07-11T07:13:29Z</time>
      </trkpt>
      <trkpt lat="44.71327" lon="-1.22332">
        <ele>-20.05</ele>
        <time>2024-07-11T07:13:31Z</time>
      </trkpt>
      <trkpt lat="44.71333" lon="-1.22356">
        <ele>-19.57</ele>
        <time>2024-07-11T07:13:41Z</time>
      </trkpt>
      <trkpt lat="44.71339" lon="-1.22376">
        <ele>-19.09</ele>
        <time>2024-07-11T07:13:52Z</time>
      </trkpt>
      <trkpt lat="44.71339" lon="-1.22388">
        <ele>-19.57</ele>
        <time>2024-07-11T07:14:03Z</time>
      </trkpt>
      <trkpt lat="44.71336" lon="-1.22404">
        <ele>-19.09</ele>
        <time>2024-07-11T07:14:13Z</time>
      </trkpt>
      <trkpt lat="44.71333" lon="-1.22426">
        <ele>-19.57</ele>
        <time>2024-07-11T07:14:25Z</time>
      </trkpt>
      <trkpt lat="44.71333" lon="-1.22433">
        <ele>-20.05</ele>
        <time>2024-07-11T07:14:36Z</time>
      </trkpt>
      <trkpt lat="44.7133" lon="-1.22449">
        <ele>-19.09</ele>
        <time>2024-07-11T07:14:47Z</time>
      </trkpt>
      <trkpt lat="44.71325" lon="-1.22467">
        <ele>-18.61</ele>
        <time>2024-07-11T07:14:58Z</time>
      </trkpt>
      <trkpt lat="44.71322" lon="-1.22486">
        <ele>-18.13</ele>
        <time>2024-07-11T07:15:08Z</time>
      </trkpt>
      <trkpt lat="44.71321" lon="-1.22505">
        <ele>-18.61</ele>
        <time>2024-07-11T07:15:20Z</time>
      </trkpt>
      <trkpt lat="44.71315" lon="-1.22537">
        <ele>-19.09</ele>
        <time>2024-07-11T07:15:32Z</time>
      </trkpt>
      <trkpt lat="44.7131" lon="-1.22561">
        <ele>-18.61</ele>
        <time>2024-07-11T07:15:43Z</time>
      </trkpt>
      <trkpt lat="44.71309" lon="-1.22572">
        <ele>-19.09</ele>
        <time>2024-07-11T07:15:53Z</time>
      </trkpt>
      <trkpt lat="44.71305" lon="-1.22584">
        <ele>-19.57</ele>
        <time>2024-07-11T07:16:02Z</time>
      </trkpt>
      <trkpt lat="44.71298" lon="-1.22614">
        <ele>-19.57</ele>
        <time>2024-07-11T07:16:17Z</time>
      </trkpt>
      <trkpt lat="44.71289" lon="-1.22633">
        <ele>-20.05</ele>
        <time>2024-07-11T07:16:29Z</time>
      </trkpt>
      <trkpt lat="44.71289" lon="-1.22651">
        <ele>-18.61</ele>
        <time>2024-07-11T07:16:40Z</time>
      </trkpt>
      <trkpt lat="44.71289" lon="-1.22672">
        <ele>-18.61</ele>
        <time>2024-07-11T07:16:50Z</time>
      </trkpt>
      <trkpt lat="44.71294" lon="-1.22689">
        <ele>-17.17</ele>
        <time>2024-07-11T07:17:01Z</time>
      </trkpt>
      <trkpt lat="44.713" lon="-1.22697">
        <ele>-17.17</ele>
        <time>2024-07-11T07:17:08Z</time>
      </trkpt>
      <trkpt lat="44.71309" lon="-1.22701">
        <ele>-15.24</ele>
        <time>2024-07-11T07:17:15Z</time>
      </trkpt>
      <trkpt lat="44.71317" lon="-1.22704">
        <ele>-15.24</ele>
        <time>2024-07-11T07:17:21Z</time>
      </trkpt>
      <trkpt lat="44.71327" lon="-1.22708">
        <ele>-13.8</ele>
        <time>2024-07-11T07:17:27Z</time>
      </trkpt>
      <trkpt lat="44.71336" lon="-1.22713">
        <ele>-13.32</ele>
        <time>2024-07-11T07:17:38Z</time>
      </trkpt>
      <trkpt lat="44.71345" lon="-1.22723">
        <ele>-10.44</ele>
        <time>2024-07-11T07:17:49Z</time>
      </trkpt>
      <trkpt lat="44.71352" lon="-1.2273">
        <ele>-10.92</ele>
        <time>2024-07-11T07:17:57Z</time>
      </trkpt>
      <trkpt lat="44.71368" lon="-1.22739">
        <ele>-9.96</ele>
        <time>2024-07-11T07:18:10Z</time>
      </trkpt>
      <trkpt lat="44.71375" lon="-1.22751">
        <ele>-8.51</ele>
        <time>2024-07-11T07:18:21Z</time>
      </trkpt>
      <trkpt lat="44.71382" lon="-1.22754">
        <ele>-8.51</ele>
        <time>2024-07-11T07:18:30Z</time>
      </trkpt>
      <trkpt lat="44.714" lon="-1.22753">
        <ele>-7.55</ele>
        <time>2024-07-11T07:18:41Z</time>
      </trkpt>
      <trkpt lat="44.71417" lon="-1.22751">
        <ele>-7.55</ele>
        <time>2024-07-11T07:18:53Z</time>
      </trkpt>
      <trkpt lat="44.71435" lon="-1.22751">
        <ele>-6.11</ele>
        <time>2024-07-11T07:19:04Z</time>
      </trkpt>
      <trkpt lat="44.71438" lon="-1.22751">
        <ele>-5.15</ele>
        <time>2024-07-11T07:19:06Z</time>
      </trkpt>
      <trkpt lat="44.71444" lon="-1.22751">
        <ele>-3.71</ele>
        <time>2024-07-11T07:19:09Z</time>
      </trkpt>
      <trkpt lat="44.71456" lon="-1.22752">
        <ele>-4.67</ele>
        <time>2024-07-11T07:19:18Z</time>
      </trkpt>
      <trkpt lat="44.71469" lon="-1.22751">
        <ele>-3.23</ele>
        <time>2024-07-11T07:19:31Z</time>
      </trkpt>
      <trkpt lat="44.71476" lon="-1.22747">
        <ele>-3.71</ele>
        <time>2024-07-11T07:19:43Z</time>
      </trkpt>
      <trkpt lat="44.71489" lon="-1.22741">
        <ele>-3.23</ele>
        <time>2024-07-11T07:19:54Z</time>
      </trkpt>
      <trkpt lat="44.71505" lon="-1.22738">
        <ele>-1.3</ele>
        <time>2024-07-11T07:20:08Z</time>
      </trkpt>
      <trkpt lat="44.71515" lon="-1.22737">
        <ele>-0.34</ele>
        <time>2024-07-11T07:20:17Z</time>
      </trkpt>
      <trkpt lat="44.71523" lon="-1.22737">
        <ele>0.62</ele>
        <time>2024-07-11T07:20:27Z</time>
      </trkpt>
      <trkpt lat="44.7153" lon="-1.2274">
        <ele>1.58</ele>
        <time>2024-07-11T07:20:34Z</time>
      </trkpt>
      <trkpt lat="44.71544" lon="-1.22742">
        <ele>3.02</ele>
        <time>2024-07-11T07:20:46Z</time>
      </trkpt>
      <trkpt lat="44.71554" lon="-1.22744">
        <ele>3.02</ele>
        <time>2024-07-11T07:20:55Z</time>
      </trkpt>
      <trkpt lat="44.71562" lon="-1.22739">
        <ele>1.58</ele>
        <time>2024-07-11T07:21:06Z</time>
      </trkpt>
      <trkpt lat="44.71575" lon="-1.2273">
        <ele>0.14</ele>
        <time>2024-07-11T07:21:16Z</time>
      </trkpt>
      <trkpt lat="44.71583" lon="-1.22736">
        <ele>0.14</ele>
        <time>2024-07-11T07:21:29Z</time>
      </trkpt>
      <trkpt lat="44.71583" lon="-1.22738">
        <ele>-0.82</ele>
        <time>2024-07-11T07:21:30Z</time>
      </trkpt>
      <trkpt lat="44.71587" lon="-1.22756">
        <ele>-0.34</ele>
        <time>2024-07-11T07:21:42Z</time>
      </trkpt>
      <trkpt lat="44.71587" lon="-1.22757">
        <ele>-0.34</ele>
        <time>2024-07-11T07:21:43Z</time>
      </trkpt>
      <trkpt lat="44.71591" lon="-1.22782">
        <ele>0.62</ele>
        <time>2024-07-11T07:21:54Z</time>
      </trkpt>
      <trkpt lat="44.71602" lon="-1.22804">
        <ele>0.14</ele>
        <time>2024-07-11T07:22:06Z</time>
      </trkpt>
      <trkpt lat="44.71612" lon="-1.22822">
        <ele>-1.3</ele>
        <time>2024-07-11T07:22:19Z</time>
      </trkpt>
      <trkpt lat="44.71621" lon="-1.22834">
        <ele>-0.82</ele>
        <time>2024-07-11T07:22:30Z</time>
      </trkpt>
      <trkpt lat="44.71631" lon="-1.22843">
        <ele>-2.75</ele>
        <time>2024-07-11T07:22:43Z</time>
      </trkpt>
      <trkpt lat="44.71632" lon="-1.22844">
        <ele>-2.75</ele>
        <time>2024-07-11T07:22:44Z</time>
      </trkpt>
      <trkpt lat="44.71646" lon="-1.2286">
        <ele>-4.67</ele>
        <time>2024-07-11T07:22:58Z</time>
      </trkpt>
      <trkpt lat="44.71649" lon="-1.22878">
        <ele>-5.63</ele>
        <time>2024-07-11T07:23:06Z</time>
      </trkpt>
      <trkpt lat="44.71653" lon="-1.22899">
        <ele>-8.03</ele>
        <time>2024-07-11T07:23:18Z</time>
      </trkpt>
      <trkpt lat="44.71657" lon="-1.22923">
        <ele>-9.96</ele>
        <time>2024-07-11T07:23:29Z</time>
      </trkpt>
      <trkpt lat="44.71663" lon="-1.22944">
        <ele>-10.92</ele>
        <time>2024-07-11T07:23:40Z</time>
      </trkpt>
      <trkpt lat="44.71666" lon="-1.22962">
        <ele>-13.32</ele>
        <time>2024-07-11T07:23:51Z</time>
      </trkpt>
      <trkpt lat="44.71668" lon="-1.22974">
        <ele>-14.76</ele>
        <time>2024-07-11T07:24:02Z</time>
      </trkpt>
      <trkpt lat="44.71671" lon="-1.22985">
        <ele>-16.69</ele>
        <time>2024-07-11T07:24:15Z</time>
      </trkpt>
      <trkpt lat="44.71666" lon="-1.22996">
        <ele>-17.17</ele>
        <time>2024-07-11T07:24:27Z</time>
      </trkpt>
      <trkpt lat="44.71653" lon="-1.23018">
        <ele>-18.61</ele>
        <time>2024-07-11T07:24:39Z</time>
      </trkpt>
      <trkpt lat="44.71645" lon="-1.23033">
        <ele>-18.61</ele>
        <time>2024-07-11T07:24:50Z</time>
      </trkpt>
      <trkpt lat="44.71646" lon="-1.23037">
        <ele>-18.61</ele>
        <time>2024-07-11T07:24:59Z</time>
      </trkpt>
      <trkpt lat="44.71647" lon="-1.23038">
        <ele>-19.09</ele>
        <time>2024-07-11T07:25:00Z</time>
      </trkpt>
      <trkpt lat="44.71657" lon="-1.23042">
        <ele>-20.05</ele>
        <time>2024-07-11T07:25:11Z</time>
      </trkpt>
      <trkpt lat="44.71654" lon="-1.23071">
        <ele>-19.09</ele>
        <time>2024-07-11T07:25:23Z</time>
      </trkpt>
      <trkpt lat="44.71647" lon="-1.23096">
        <ele>-19.09</ele>
        <time>2024-07-11T07:25:29Z</time>
      </trkpt>
      <trkpt lat="44.7164" lon="-1.23137">
        <ele>-19.57</ele>
        <time>2024-07-11T07:25:39Z</time>
      </trkpt>
      <trkpt lat="44.71637" lon="-1.23152">
        <ele>-20.53</ele>
        <time>2024-07-11T07:25:50Z</time>
      </trkpt>
      <trkpt lat="44.71628" lon="-1.23168">
        <ele>-20.05</ele>
        <time>2024-07-11T07:26:00Z</time>
      </trkpt>
      <trkpt lat="44.71616" lon="-1.23178">
        <ele>-19.57</ele>
        <time>2024-07-11T07:26:07Z</time>
      </trkpt>
      <trkpt lat="44.71596" lon="-1.23191">
        <ele>-19.57</ele>
        <time>2024-07-11T07:26:19Z</time>
      </trkpt>
      <trkpt lat="44.71579" lon="-1.23198">
        <ele>-20.05</ele>
        <time>2024-07-11T07:26:30Z</time>
      </trkpt>
      <trkpt lat="44.71559" lon="-1.23211">
        <ele>-20.05</ele>
        <time>2024-07-11T07:26:40Z</time>
      </trkpt>
      <trkpt lat="44.71541" lon="-1.23216">
        <ele>-20.53</ele>
        <time>2024-07-11T07:26:50Z</time>
      </trkpt>
      <trkpt lat="44.71536" lon="-1.23218">
        <ele>-20.05</ele>
        <time>2024-07-11T07:26:56Z</time>
      </trkpt>
      <trkpt lat="44.7152" lon="-1.23223">
        <ele>-20.53</ele>
        <time>2024-07-11T07:27:07Z</time>
      </trkpt>
      <trkpt lat="44.71507" lon="-1.23227">
        <ele>-18.13</ele>
        <time>2024-07-11T07:27:18Z</time>
      </trkpt>
      <trkpt lat="44.71496" lon="-1.23226">
        <ele>-16.69</ele>
        <time>2024-07-11T07:27:30Z</time>
      </trkpt>
      <trkpt lat="44.71494" lon="-1.23227">
        <ele>-18.13</ele>
        <time>2024-07-11T07:27:32Z</time>
      </trkpt>
      <trkpt lat="44.71492" lon="-1.23228">
        <ele>-18.61</ele>
        <time>2024-07-11T07:27:34Z</time>
      </trkpt>
      <trkpt lat="44.71485" lon="-1.23232">
        <ele>-19.09</ele>
        <time>2024-07-11T07:27:38Z</time>
      </trkpt>
      <trkpt lat="44.71463" lon="-1.23239">
        <ele>-18.13</ele>
        <time>2024-07-11T07:27:50Z</time>
      </trkpt>
      <trkpt lat="44.71445" lon="-1.2324">
        <ele>-18.61</ele>
        <time>2024-07-11T07:28:03Z</time>
      </trkpt>
      <trkpt lat="44.7143" lon="-1.23239">
        <ele>-18.13</ele>
        <time>2024-07-11T07:28:15Z</time>
      </trkpt>
      <trkpt lat="44.71421" lon="-1.23229">
        <ele>-17.65</ele>
        <time>2024-07-11T07:28:28Z</time>
      </trkpt>
      <trkpt lat="44.71413" lon="-1.23229">
        <ele>-18.13</ele>
        <time>2024-07-11T07:28:34Z</time>
      </trkpt>
      <trkpt lat="44.71398" lon="-1.23237">
        <ele>-19.57</ele>
        <time>2024-07-11T07:28:43Z</time>
      </trkpt>
      <trkpt lat="44.71382" lon="-1.23245">
        <ele>-19.57</ele>
        <time>2024-07-11T07:28:55Z</time>
      </trkpt>
      <trkpt lat="44.71369" lon="-1.23247">
        <ele>-18.61</ele>
        <time>2024-07-11T07:29:04Z</time>
      </trkpt>
      <trkpt lat="44.71358" lon="-1.23249">
        <ele>-20.05</ele>
        <time>2024-07-11T07:29:13Z</time>
      </trkpt>
      <trkpt lat="44.71349" lon="-1.2325">
        <ele>-19.09</ele>
        <time>2024-07-11T07:29:20Z</time>
      </trkpt>
      <trkpt lat="44.71337" lon="-1.23252">
        <ele>-18.13</ele>
        <time>2024-07-11T07:29:29Z</time>
      </trkpt>
      <trkpt lat="44.71327" lon="-1.23255">
        <ele>-19.09</ele>
        <time>2024-07-11T07:29:37Z</time>
      </trkpt>
      <trkpt lat="44.71319" lon="-1.23255">
        <ele>-17.65</ele>
        <time>2024-07-11T07:29:43Z</time>
      </trkpt>
      <trkpt lat="44.7131" lon="-1.23256">
        <ele>-18.61</ele>
        <time>2024-07-11T07:29:49Z</time>
      </trkpt>
      <trkpt lat="44.71302" lon="-1.23258">
        <ele>-17.65</ele>
        <time>2024-07-11T07:29:55Z</time>
      </trkpt>
      <trkpt lat="44.7129" lon="-1.23261">
        <ele>-18.13</ele>
        <time>2024-07-11T07:30:01Z</time>
      </trkpt>
      <trkpt lat="44.71279" lon="-1.2326">
        <ele>-20.05</ele>
        <time>2024-07-11T07:30:10Z</time>
      </trkpt>
      <trkpt lat="44.71276" lon="-1.23261">
        <ele>-19.09</ele>
        <time>2024-07-11T07:30:13Z</time>
      </trkpt>
      <trkpt lat="44.7127" lon="-1.23264">
        <ele>-19.57</ele>
        <time>2024-07-11T07:30:17Z</time>
      </trkpt>
      <trkpt lat="44.71255" lon="-1.23268">
        <ele>-19.09</ele>
        <time>2024-07-11T07:30:26Z</time>
      </trkpt>
      <trkpt lat="44.71254" lon="-1.23268">
        <ele>-20.05</ele>
        <time>2024-07-11T07:30:27Z</time>
      </trkpt>
      <trkpt lat="44.71245" lon="-1.23272">
        <ele>-18.61</ele>
        <time>2024-07-11T07:30:36Z</time>
      </trkpt>
      <trkpt lat="44.71245" lon="-1.23277">
        <ele>-18.13</ele>
        <time>2024-07-11T07:30:40Z</time>
      </trkpt>
      <trkpt lat="44.71248" lon="-1.23287">
        <ele>-16.69</ele>
        <time>2024-07-11T07:30:52Z</time>
      </trkpt>
      <trkpt lat="44.71249" lon="-1.23288">
        <ele>-16.69</ele>
        <time>2024-07-11T07:30:54Z</time>
      </trkpt>
      <trkpt lat="44.71252" lon="-1.23295">
        <ele>-16.21</ele>
        <time>2024-07-11T07:31:00Z</time>
      </trkpt>
      <trkpt lat="44.71255" lon="-1.23304">
        <ele>-16.21</ele>
        <time>2024-07-11T07:31:09Z</time>
      </trkpt>
      <trkpt lat="44.71262" lon="-1.23317">
        <ele>-15.24</ele>
        <time>2024-07-11T07:31:21Z</time>
      </trkpt>
      <trkpt lat="44.71266" lon="-1.2333">
        <ele>-13.8</ele>
        <time>2024-07-11T07:31:31Z</time>
      </trkpt>
      <trkpt lat="44.71275" lon="-1.23347">
        <ele>-14.28</ele>
        <time>2024-07-11T07:31:44Z</time>
      </trkpt>
      <trkpt lat="44.71281" lon="-1.23353">
        <ele>-15.72</ele>
        <time>2024-07-11T07:31:55Z</time>
      </trkpt>
      <trkpt lat="44.71283" lon="-1.23352">
        <ele>-14.76</ele>
        <time>2024-07-11T07:31:57Z</time>
      </trkpt>
      <trkpt lat="44.71293" lon="-1.23352">
        <ele>-14.28</ele>
        <time>2024-07-11T07:32:07Z</time>
      </trkpt>
      <trkpt lat="44.71294" lon="-1.23353">
        <ele>-12.84</ele>
        <time>2024-07-11T07:32:08Z</time>
      </trkpt>
      <trkpt lat="44.71296" lon="-1.23368">
        <ele>-12.84</ele>
        <time>2024-07-11T07:32:18Z</time>
      </trkpt>
      <trkpt lat="44.71297" lon="-1.23381">
        <ele>-13.8</ele>
        <time>2024-07-11T07:32:23Z</time>
      </trkpt>
      <trkpt lat="44.7129" lon="-1.23409">
        <ele>-13.32</ele>
        <time>2024-07-11T07:32:33Z</time>
      </trkpt>
      <trkpt lat="44.71292" lon="-1.23434">
        <ele>-14.76</ele>
        <time>2024-07-11T07:32:43Z</time>
      </trkpt>
      <trkpt lat="44.71301" lon="-1.23453">
        <ele>-12.84</ele>
        <time>2024-07-11T07:32:54Z</time>
      </trkpt>
      <trkpt lat="44.71317" lon="-1.23474">
        <ele>-13.32</ele>
        <time>2024-07-11T07:33:06Z</time>
      </trkpt>
      <trkpt lat="44.71328" lon="-1.23492">
        <ele>-13.32</ele>
        <time>2024-07-11T07:33:18Z</time>
      </trkpt>
      <trkpt lat="44.71341" lon="-1.23509">
        <ele>-10.92</ele>
        <time>2024-07-11T07:33:29Z</time>
      </trkpt>
      <trkpt lat="44.71351" lon="-1.23525">
        <ele>-12.36</ele>
        <time>2024-07-11T07:33:38Z</time>
      </trkpt>
      <trkpt lat="44.71356" lon="-1.23545">
        <ele>-11.88</ele>
        <time>2024-07-11T07:33:48Z</time>
      </trkpt>
      <trkpt lat="44.71356" lon="-1.23549">
        <ele>-11.88</ele>
        <time>2024-07-11T07:33:50Z</time>
      </trkpt>
      <trkpt lat="44.71354" lon="-1.23567">
        <ele>-12.36</ele>
        <time>2024-07-11T07:34:00Z</time>
      </trkpt>
      <trkpt lat="44.71358" lon="-1.23578">
        <ele>-13.32</ele>
        <time>2024-07-11T07:34:10Z</time>
      </trkpt>
      <trkpt lat="44.71358" lon="-1.23594">
        <ele>-12.36</ele>
        <time>2024-07-11T07:34:21Z</time>
      </trkpt>
      <trkpt lat="44.71357" lon="-1.236">
        <ele>-11.4</ele>
        <time>2024-07-11T07:34:31Z</time>
      </trkpt>
      <trkpt lat="44.71353" lon="-1.23617">
        <ele>-13.32</ele>
        <time>2024-07-11T07:34:45Z</time>
      </trkpt>
      <trkpt lat="44.71353" lon="-1.23618">
        <ele>-13.32</ele>
        <time>2024-07-11T07:34:46Z</time>
      </trkpt>
      <trkpt lat="44.71349" lon="-1.23631">
        <ele>-13.8</ele>
        <time>2024-07-11T07:34:57Z</time>
      </trkpt>
      <trkpt lat="44.71344" lon="-1.23651">
        <ele>-14.76</ele>
        <time>2024-07-11T07:35:07Z</time>
      </trkpt>
      <trkpt lat="44.71342" lon="-1.23667">
        <ele>-15.72</ele>
        <time>2024-07-11T07:35:20Z</time>
      </trkpt>
      <trkpt lat="44.71339" lon="-1.23683">
        <ele>-15.72</ele>
        <time>2024-07-11T07:35:34Z</time>
      </trkpt>
      <trkpt lat="44.71339" lon="-1.23688">
        <ele>-15.72</ele>
        <time>2024-07-11T07:35:45Z</time>
      </trkpt>
      <trkpt lat="44.71344" lon="-1.23693">
        <ele>-15.24</ele>
        <time>2024-07-11T07:35:56Z</time>
      </trkpt>
      <trkpt lat="44.71344" lon="-1.23702">
        <ele>-16.21</ele>
        <time>2024-07-11T07:36:11Z</time>
      </trkpt>
      <trkpt lat="44.71343" lon="-1.23705">
        <ele>-15.72</ele>
        <time>2024-07-11T07:36:22Z</time>
      </trkpt>
      <trkpt lat="44.7134" lon="-1.23704">
        <ele>-15.72</ele>
        <time>2024-07-11T07:36:34Z</time>
      </trkpt>
      <trkpt lat="44.71338" lon="-1.23708">
        <ele>-16.21</ele>
        <time>2024-07-11T07:36:49Z</time>
      </trkpt>
      <trkpt lat="44.71338" lon="-1.23713">
        <ele>-15.72</ele>
        <time>2024-07-11T07:37:04Z</time>
      </trkpt>
      <trkpt lat="44.71338" lon="-1.23713">
        <ele>-16.21</ele>
        <time>2024-07-11T07:37:16Z</time>
      </trkpt>
      <trkpt lat="44.71335" lon="-1.23715">
        <ele>-15.72</ele>
        <time>2024-07-11T07:37:28Z</time>
      </trkpt>
      <trkpt lat="44.71334" lon="-1.23716">
        <ele>-15.72</ele>
        <time>2024-07-11T07:37:40Z</time>
      </trkpt>
      <trkpt lat="44.71334" lon="-1.23717">
        <ele>-16.21</ele>
        <time>2024-07-11T07:37:51Z</time>
      </trkpt>
      <trkpt lat="44.71328" lon="-1.23719">
        <ele>-16.21</ele>
        <time>2024-07-11T07:38:01Z</time>
      </trkpt>
      <trkpt lat="44.71321" lon="-1.23728">
        <ele>-15.72</ele>
        <time>2024-07-11T07:38:11Z</time>
      </trkpt>
      <trkpt lat="44.71315" lon="-1.23734">
        <ele>-14.28</ele>
        <time>2024-07-11T07:38:18Z</time>
      </trkpt>
      <trkpt lat="44.7131" lon="-1.2374">
        <ele>-15.24</ele>
        <time>2024-07-11T07:38:25Z</time>
      </trkpt>
      <trkpt lat="44.71308" lon="-1.23741">
        <ele>-13.32</ele>
        <time>2024-07-11T07:38:27Z</time>
      </trkpt>
      <trkpt lat="44.71293" lon="-1.23748">
        <ele>-13.8</ele>
        <time>2024-07-11T07:38:38Z</time>
      </trkpt>
      <trkpt lat="44.71279" lon="-1.23749">
        <ele>-15.24</ele>
        <time>2024-07-11T07:38:50Z</time>
      </trkpt>
      <trkpt lat="44.71268" lon="-1.23755">
        <ele>-16.21</ele>
        <time>2024-07-11T07:39:01Z</time>
      </trkpt>
      <trkpt lat="44.71263" lon="-1.23759">
        <ele>-15.72</ele>
        <time>2024-07-11T07:39:08Z</time>
      </trkpt>
      <trkpt lat="44.71261" lon="-1.23762">
        <ele>-15.72</ele>
        <time>2024-07-11T07:39:14Z</time>
      </trkpt>
      <trkpt lat="44.7125" lon="-1.23774">
        <ele>-15.72</ele>
        <time>2024-07-11T07:39:24Z</time>
      </trkpt>
      <trkpt lat="44.71236" lon="-1.23801">
        <ele>-17.65</ele>
        <time>2024-07-11T07:39:36Z</time>
      </trkpt>
      <trkpt lat="44.71223" lon="-1.23819">
        <ele>-17.65</ele>
        <time>2024-07-11T07:39:46Z</time>
      </trkpt>
      <trkpt lat="44.71219" lon="-1.23841">
        <ele>-17.17</ele>
        <time>2024-07-11T07:39:57Z</time>
      </trkpt>
      <trkpt lat="44.71219" lon="-1.23845">
        <ele>-18.61</ele>
        <time>2024-07-11T07:39:59Z</time>
      </trkpt>
      <trkpt lat="44.71217" lon="-1.23878">
        <ele>-17.65</ele>
        <time>2024-07-11T07:40:12Z</time>
      </trkpt>
      <trkpt lat="44.71218" lon="-1.23896">
        <ele>-18.13</ele>
        <time>2024-07-11T07:40:22Z</time>
      </trkpt>
      <trkpt lat="44.71214" lon="-1.23923">
        <ele>-19.09</ele>
        <time>2024-07-11T07:40:33Z</time>
      </trkpt>
      <trkpt lat="44.71214" lon="-1.23942">
        <ele>-18.61</ele>
        <time>2024-07-11T07:40:44Z</time>
      </trkpt>
      <trkpt lat="44.71216" lon="-1.23954">
        <ele>-18.61</ele>
        <time>2024-07-11T07:40:54Z</time>
      </trkpt>
      <trkpt lat="44.71216" lon="-1.23972">
        <ele>-18.61</ele>
        <time>2024-07-11T07:41:05Z</time>
      </trkpt>
      <trkpt lat="44.71223" lon="-1.23986">
        <ele>-18.13</ele>
        <time>2024-07-11T07:41:16Z</time>
      </trkpt>
      <trkpt lat="44.71226" lon="-1.23993">
        <ele>-18.61</ele>
        <time>2024-07-11T07:41:20Z</time>
      </trkpt>
      <trkpt lat="44.71237" lon="-1.24005">
        <ele>-18.61</ele>
        <time>2024-07-11T07:41:28Z</time>
      </trkpt>
      <trkpt lat="44.71253" lon="-1.24022">
        <ele>-18.13</ele>
        <time>2024-07-11T07:41:39Z</time>
      </trkpt>
      <trkpt lat="44.71262" lon="-1.24026">
        <ele>-18.61</ele>
        <time>2024-07-11T07:41:48Z</time>
      </trkpt>
      <trkpt lat="44.71273" lon="-1.24029">
        <ele>-18.13</ele>
        <time>2024-07-11T07:41:57Z</time>
      </trkpt>
      <trkpt lat="44.71284" lon="-1.24035">
        <ele>-18.61</ele>
        <time>2024-07-11T07:42:09Z</time>
      </trkpt>
      <trkpt lat="44.71288" lon="-1.2404">
        <ele>-18.13</ele>
        <time>2024-07-11T07:42:17Z</time>
      </trkpt>
      <trkpt lat="44.71292" lon="-1.24051">
        <ele>-19.09</ele>
        <time>2024-07-11T07:42:24Z</time>
      </trkpt>
      <trkpt lat="44.71299" lon="-1.24064">
        <ele>-17.65</ele>
        <time>2024-07-11T07:42:34Z</time>
      </trkpt>
      <trkpt lat="44.713" lon="-1.24077">
        <ele>-19.09</ele>
        <time>2024-07-11T07:42:42Z</time>
      </trkpt>
      <trkpt lat="44.71299" lon="-1.24105">
        <ele>-19.09</ele>
        <time>2024-07-11T07:42:53Z</time>
      </trkpt>
      <trkpt lat="44.713" lon="-1.24115">
        <ele>-18.13</ele>
        <time>2024-07-11T07:42:57Z</time>
      </trkpt>
      <trkpt lat="44.71307" lon="-1.24136">
        <ele>-19.09</ele>
        <time>2024-07-11T07:43:08Z</time>
      </trkpt>
      <trkpt lat="44.71313" lon="-1.24147">
        <ele>-17.65</ele>
        <time>2024-07-11T07:43:19Z</time>
      </trkpt>
      <trkpt lat="44.71315" lon="-1.24159">
        <ele>-17.65</ele>
        <time>2024-07-11T07:43:31Z</time>
      </trkpt>
      <trkpt lat="44.71317" lon="-1.24171">
        <ele>-17.17</ele>
        <time>2024-07-11T07:43:40Z</time>
      </trkpt>
      <trkpt lat="44.71318" lon="-1.24176">
        <ele>-15.24</ele>
        <time>2024-07-11T07:43:44Z</time>
      </trkpt>
      <trkpt lat="44.71333" lon="-1.24183">
        <ele>-17.17</ele>
        <time>2024-07-11T07:43:54Z</time>
      </trkpt>
      <trkpt lat="44.71337" lon="-1.24188">
        <ele>-17.17</ele>
        <time>2024-07-11T07:43:59Z</time>
      </trkpt>
      <trkpt lat="44.71349" lon="-1.24207">
        <ele>-17.17</ele>
        <time>2024-07-11T07:44:12Z</time>
      </trkpt>
      <trkpt lat="44.71366" lon="-1.24221">
        <ele>-16.69</ele>
        <time>2024-07-11T07:44:24Z</time>
      </trkpt>
      <trkpt lat="44.7137" lon="-1.2423">
        <ele>-17.17</ele>
        <time>2024-07-11T07:44:34Z</time>
      </trkpt>
      <trkpt lat="44.71376" lon="-1.24236">
        <ele>-17.65</ele>
        <time>2024-07-11T07:44:45Z</time>
      </trkpt>
      <trkpt lat="44.71383" lon="-1.24248">
        <ele>-17.17</ele>
        <time>2024-07-11T07:44:56Z</time>
      </trkpt>
      <trkpt lat="44.71389" lon="-1.24263">
        <ele>-17.17</ele>
        <time>2024-07-11T07:45:07Z</time>
      </trkpt>
      <trkpt lat="44.71389" lon="-1.24264">
        <ele>-16.69</ele>
        <time>2024-07-11T07:45:08Z</time>
      </trkpt>
      <trkpt lat="44.7139" lon="-1.24273">
        <ele>-17.17</ele>
        <time>2024-07-11T07:45:13Z</time>
      </trkpt>
      <trkpt lat="44.71393" lon="-1.24296">
        <ele>-17.65</ele>
        <time>2024-07-11T07:45:26Z</time>
      </trkpt>
      <trkpt lat="44.714" lon="-1.24313">
        <ele>-17.65</ele>
        <time>2024-07-11T07:45:37Z</time>
      </trkpt>
      <trkpt lat="44.71403" lon="-1.24325">
        <ele>-17.17</ele>
        <time>2024-07-11T07:45:44Z</time>
      </trkpt>
      <trkpt lat="44.71406" lon="-1.24345">
        <ele>-16.69</ele>
        <time>2024-07-11T07:45:56Z</time>
      </trkpt>
      <trkpt lat="44.71407" lon="-1.24364">
        <ele>-17.17</ele>
        <time>2024-07-11T07:46:09Z</time>
      </trkpt>
      <trkpt lat="44.71408" lon="-1.24375">
        <ele>-16.69</ele>
        <time>2024-07-11T07:46:19Z</time>
      </trkpt>
      <trkpt lat="44.71411" lon="-1.24387">
        <ele>-16.21</ele>
        <time>2024-07-11T07:46:25Z</time>
      </trkpt>
      <trkpt lat="44.71418" lon="-1.24416">
        <ele>-16.21</ele>
        <time>2024-07-11T07:46:37Z</time>
      </trkpt>
      <trkpt lat="44.71421" lon="-1.24429">
        <ele>-15.24</ele>
        <time>2024-07-11T07:46:47Z</time>
      </trkpt>
      <trkpt lat="44.71429" lon="-1.24445">
        <ele>-16.21</ele>
        <time>2024-07-11T07:46:58Z</time>
      </trkpt>
      <trkpt lat="44.71437" lon="-1.24458">
        <ele>-15.72</ele>
        <time>2024-07-11T07:47:08Z</time>
      </trkpt>
      <trkpt lat="44.71439" lon="-1.2446">
        <ele>-14.28</ele>
        <time>2024-07-11T07:47:10Z</time>
      </trkpt>
      <trkpt lat="44.71451" lon="-1.24483">
        <ele>-13.8</ele>
        <time>2024-07-11T07:47:25Z</time>
      </trkpt>
      <trkpt lat="44.71458" lon="-1.24494">
        <ele>-13.32</ele>
        <time>2024-07-11T07:47:33Z</time>
      </trkpt>
      <trkpt lat="44.7146" lon="-1.24497">
        <ele>-13.32</ele>
        <time>2024-07-11T07:47:35Z</time>
      </trkpt>
      <trkpt lat="44.71469" lon="-1.24522">
        <ele>-12.36</ele>
        <time>2024-07-11T07:47:48Z</time>
      </trkpt>
      <trkpt lat="44.71475" lon="-1.24529">
        <ele>-11.88</ele>
        <time>2024-07-11T07:47:53Z</time>
      </trkpt>
      <trkpt lat="44.71491" lon="-1.2454">
        <ele>-12.36</ele>
        <time>2024-07-11T07:48:06Z</time>
      </trkpt>
      <trkpt lat="44.71493" lon="-1.24542">
        <ele>-11.88</ele>
        <time>2024-07-11T07:48:08Z</time>
      </trkpt>
      <trkpt lat="44.715" lon="-1.24553">
        <ele>-10.44</ele>
        <time>2024-07-11T07:48:19Z</time>
      </trkpt>
      <trkpt lat="44.71503" lon="-1.24557">
        <ele>-11.88</ele>
        <time>2024-07-11T07:48:22Z</time>
      </trkpt>
      <trkpt lat="44.71504" lon="-1.2456">
        <ele>-10.44</ele>
        <time>2024-07-11T07:48:24Z</time>
      </trkpt>
      <trkpt lat="44.71503" lon="-1.24573">
        <ele>-10.44</ele>
        <time>2024-07-11T07:48:25Z</time>
      </trkpt>
      <trkpt lat="44.71503" lon="-1.24593">
        <ele>-9.48</ele>
        <time>2024-07-11T07:48:35Z</time>
      </trkpt>
      <trkpt lat="44.71503" lon="-1.24607">
        <ele>-9.48</ele>
        <time>2024-07-11T07:48:44Z</time>
      </trkpt>
      <trkpt lat="44.71503" lon="-1.24608">
        <ele>-9.48</ele>
        <time>2024-07-11T07:48:45Z</time>
      </trkpt>
      <trkpt lat="44.71503" lon="-1.24614">
        <ele>-10.44</ele>
        <time>2024-07-11T07:48:49Z</time>
      </trkpt>
      <trkpt lat="44.71503" lon="-1.24615">
        <ele>-9.48</ele>
        <time>2024-07-11T07:48:50Z</time>
      </trkpt>
      <trkpt lat="44.71503" lon="-1.24625">
        <ele>-9</ele>
        <time>2024-07-11T07:48:56Z</time>
      </trkpt>
      <trkpt lat="44.71503" lon="-1.24627">
        <ele>-9</ele>
        <time>2024-07-11T07:48:57Z</time>
      </trkpt>
      <trkpt lat="44.71503" lon="-1.24636">
        <ele>-9.96</ele>
        <time>2024-07-11T07:49:02Z</time>
      </trkpt>
      <trkpt lat="44.71506" lon="-1.24649">
        <ele>-8.03</ele>
        <time>2024-07-11T07:49:09Z</time>
      </trkpt>
      <trkpt lat="44.7151" lon="-1.24664">
        <ele>-9</ele>
        <time>2024-07-11T07:49:20Z</time>
      </trkpt>
      <trkpt lat="44.71506" lon="-1.24681">
        <ele>-5.63</ele>
        <time>2024-07-11T07:49:28Z</time>
      </trkpt>
      <trkpt lat="44.71506" lon="-1.24685">
        <ele>-7.55</ele>
        <time>2024-07-11T07:49:31Z</time>
      </trkpt>
      <trkpt lat="44.71507" lon="-1.24692">
        <ele>-5.15</ele>
        <time>2024-07-11T07:49:35Z</time>
      </trkpt>
      <trkpt lat="44.71508" lon="-1.24706">
        <ele>-6.11</ele>
        <time>2024-07-11T07:49:45Z</time>
      </trkpt>
      <trkpt lat="44.71509" lon="-1.2471">
        <ele>-2.75</ele>
        <time>2024-07-11T07:49:49Z</time>
      </trkpt>
      <trkpt lat="44.71512" lon="-1.24718">
        <ele>-4.67</ele>
        <time>2024-07-11T07:49:54Z</time>
      </trkpt>
      <trkpt lat="44.71512" lon="-1.24722">
        <ele>-1.79</ele>
        <time>2024-07-11T07:49:57Z</time>
      </trkpt>
      <trkpt lat="44.71512" lon="-1.24725">
        <ele>-3.23</ele>
        <time>2024-07-11T07:50:00Z</time>
      </trkpt>
      <trkpt lat="44.71512" lon="-1.24728">
        <ele>-2.27</ele>
        <time>2024-07-11T07:50:02Z</time>
      </trkpt>
      <trkpt lat="44.7151" lon="-1.2474">
        <ele>-0.82</ele>
        <time>2024-07-11T07:50:10Z</time>
      </trkpt>
      <trkpt lat="44.7151" lon="-1.24742">
        <ele>-0.82</ele>
        <time>2024-07-11T07:50:11Z</time>
      </trkpt>
      <trkpt lat="44.7151" lon="-1.24746">
        <ele>0.14</ele>
        <time>2024-07-11T07:50:13Z</time>
      </trkpt>
      <trkpt lat="44.71508" lon="-1.24754">
        <ele>-2.27</ele>
        <time>2024-07-11T07:50:17Z</time>
      </trkpt>
      <trkpt lat="44.71507" lon="-1.24757">
        <ele>-0.34</ele>
        <time>2024-07-11T07:50:19Z</time>
      </trkpt>
      <trkpt lat="44.71503" lon="-1.24765">
        <ele>1.1</ele>
        <time>2024-07-11T07:50:26Z</time>
      </trkpt>
      <trkpt lat="44.71494" lon="-1.24777">
        <ele>1.58</ele>
        <time>2024-07-11T07:50:37Z</time>
      </trkpt>
      <trkpt lat="44.71488" lon="-1.24785">
        <ele>1.58</ele>
        <time>2024-07-11T07:50:45Z</time>
      </trkpt>
      <trkpt lat="44.71482" lon="-1.24798">
        <ele>2.06</ele>
        <time>2024-07-11T07:50:54Z</time>
      </trkpt>
      <trkpt lat="44.71478" lon="-1.24808">
        <ele>2.06</ele>
        <time>2024-07-11T07:51:01Z</time>
      </trkpt>
      <trkpt lat="44.71478" lon="-1.24809">
        <ele>1.58</ele>
        <time>2024-07-11T07:51:02Z</time>
      </trkpt>
      <trkpt lat="44.71477" lon="-1.24825">
        <ele>3.02</ele>
        <time>2024-07-11T07:51:13Z</time>
      </trkpt>
      <trkpt lat="44.71476" lon="-1.24842">
        <ele>3.02</ele>
        <time>2024-07-11T07:51:23Z</time>
      </trkpt>
      <trkpt lat="44.71477" lon="-1.24845">
        <ele>2.06</ele>
        <time>2024-07-11T07:51:25Z</time>
      </trkpt>
      <trkpt lat="44.7148" lon="-1.24862">
        <ele>3.5</ele>
        <time>2024-07-11T07:51:36Z</time>
      </trkpt>
      <trkpt lat="44.71482" lon="-1.24876">
        <ele>3.02</ele>
        <time>2024-07-11T07:51:46Z</time>
      </trkpt>
      <trkpt lat="44.71485" lon="-1.24889">
        <ele>2.54</ele>
        <time>2024-07-11T07:51:54Z</time>
      </trkpt>
      <trkpt lat="44.71488" lon="-1.24903">
        <ele>1.58</ele>
        <time>2024-07-11T07:52:04Z</time>
      </trkpt>
      <trkpt lat="44.7149" lon="-1.24913">
        <ele>1.1</ele>
        <time>2024-07-11T07:52:14Z</time>
      </trkpt>
      <trkpt lat="44.71491" lon="-1.24913">
        <ele>1.1</ele>
        <time>2024-07-11T07:52:26Z</time>
      </trkpt>
      <trkpt lat="44.71491" lon="-1.24913">
        <ele>0.62</ele>
        <time>2024-07-11T07:52:44Z</time>
      </trkpt>
      <trkpt lat="44.71491" lon="-1.24913">
        <ele>0.62</ele>
        <time>2024-07-11T07:53:00Z</time>
      </trkpt>
      <trkpt lat="44.71493" lon="-1.24916">
        <ele>1.1</ele>
        <time>2024-07-11T07:53:08Z</time>
      </trkpt>
      <trkpt lat="44.71493" lon="-1.24916">
        <ele>1.1</ele>
        <time>2024-07-11T07:53:24Z</time>
      </trkpt>
      <trkpt lat="44.71493" lon="-1.24916">
        <ele>1.58</ele>
        <time>2024-07-11T07:53:42Z</time>
      </trkpt>
      <trkpt lat="44.71492" lon="-1.24916">
        <ele>1.58</ele>
        <time>2024-07-11T07:53:58Z</time>
      </trkpt>
      <trkpt lat="44.71492" lon="-1.24917">
        <ele>2.06</ele>
        <time>2024-07-11T07:54:11Z</time>
      </trkpt>
      <trkpt lat="44.71492" lon="-1.24916">
        <ele>2.54</ele>
        <time>2024-07-11T07:54:28Z</time>
      </trkpt>
      <trkpt lat="44.71492" lon="-1.24917">
        <ele>2.06</ele>
        <time>2024-07-11T07:54:40Z</time>
      </trkpt>
      <trkpt lat="44.71491" lon="-1.24917">
        <ele>2.54</ele>
        <time>2024-07-11T07:54:53Z</time>
      </trkpt>
      <trkpt lat="44.71491" lon="-1.24917">
        <ele>2.54</ele>
        <time>2024-07-11T07:55:09Z</time>
      </trkpt>
      <trkpt lat="44.71491" lon="-1.24917">
        <ele>2.54</ele>
        <time>2024-07-11T07:55:22Z</time>
      </trkpt>
      <trkpt lat="44.71492" lon="-1.24917">
        <ele>3.02</ele>
        <time>2024-07-11T07:55:40Z</time>
      </trkpt>
      <trkpt lat="44.71492" lon="-1.24917">
        <ele>3.02</ele>
        <time>2024-07-11T07:55:58Z</time>
      </trkpt>
      <trkpt lat="44.71492" lon="-1.24917">
        <ele>3.5</ele>
        <time>2024-07-11T07:56:14Z</time>
      </trkpt>
      <trkpt lat="44.71491" lon="-1.24917">
        <ele>3.5</ele>
        <time>2024-07-11T07:56:24Z</time>
      </trkpt>
      <trkpt lat="44.71491" lon="-1.24917">
        <ele>3.98</ele>
        <time>2024-07-11T07:56:40Z</time>
      </trkpt>
      <trkpt lat="44.71491" lon="-1.24917">
        <ele>3.98</ele>
        <time>2024-07-11T07:57:02Z</time>
      </trkpt>
      <trkpt lat="44.71491" lon="-1.24917">
        <ele>3.98</ele>
        <time>2024-07-11T07:57:18Z</time>
      </trkpt>
      <trkpt lat="44.71491" lon="-1.24915">
        <ele>4.46</ele>
        <time>2024-07-11T07:57:28Z</time>
      </trkpt>
      <trkpt lat="44.71491" lon="-1.24914">
        <ele>4.94</ele>
        <time>2024-07-11T07:57:29Z</time>
      </trkpt>
      <trkpt lat="44.71489" lon="-1.2491">
        <ele>5.91</ele>
        <time>2024-07-11T07:57:32Z</time>
      </trkpt>
      <trkpt lat="44.71486" lon="-1.24895">
        <ele>5.91</ele>
        <time>2024-07-11T07:57:41Z</time>
      </trkpt>
      <trkpt lat="44.71484" lon="-1.24887">
        <ele>7.83</ele>
        <time>2024-07-11T07:57:46Z</time>
      </trkpt>
      <trkpt lat="44.7148" lon="-1.24871">
        <ele>6.87</ele>
        <time>2024-07-11T07:57:56Z</time>
      </trkpt>
      <trkpt lat="44.71478" lon="-1.24856">
        <ele>7.35</ele>
        <time>2024-07-11T07:58:05Z</time>
      </trkpt>
      <trkpt lat="44.71477" lon="-1.24841">
        <ele>7.35</ele>
        <time>2024-07-11T07:58:14Z</time>
      </trkpt>
      <trkpt lat="44.71477" lon="-1.24828">
        <ele>7.35</ele>
        <time>2024-07-11T07:58:22Z</time>
      </trkpt>
      <trkpt lat="44.71479" lon="-1.24812">
        <ele>7.83</ele>
        <time>2024-07-11T07:58:32Z</time>
      </trkpt>
      <trkpt lat="44.7148" lon="-1.24806">
        <ele>6.87</ele>
        <time>2024-07-11T07:58:36Z</time>
      </trkpt>
      <trkpt lat="44.71486" lon="-1.24791">
        <ele>7.35</ele>
        <time>2024-07-11T07:58:45Z</time>
      </trkpt>
      <trkpt lat="44.71493" lon="-1.24779">
        <ele>6.87</ele>
        <time>2024-07-11T07:58:54Z</time>
      </trkpt>
      <trkpt lat="44.71497" lon="-1.24772">
        <ele>5.42</ele>
        <time>2024-07-11T07:59:00Z</time>
      </trkpt>
      <trkpt lat="44.71504" lon="-1.24756">
        <ele>5.42</ele>
        <time>2024-07-11T07:59:10Z</time>
      </trkpt>
      <trkpt lat="44.71508" lon="-1.24743">
        <ele>4.94</ele>
        <time>2024-07-11T07:59:19Z</time>
      </trkpt>
      <trkpt lat="44.7151" lon="-1.24732">
        <ele>3.98</ele>
        <time>2024-07-11T07:59:26Z</time>
      </trkpt>
      <trkpt lat="44.71508" lon="-1.24714">
        <ele>2.06</ele>
        <time>2024-07-11T07:59:36Z</time>
      </trkpt>
      <trkpt lat="44.71504" lon="-1.2469">
        <ele>0.62</ele>
        <time>2024-07-11T07:59:48Z</time>
      </trkpt>
      <trkpt lat="44.71498" lon="-1.24676">
        <ele>-1.79</ele>
        <time>2024-07-11T07:59:58Z</time>
      </trkpt>
      <trkpt lat="44.71495" lon="-1.24672">
        <ele>-0.34</ele>
        <time>2024-07-11T08:00:05Z</time>
      </trkpt>
      <trkpt lat="44.71491" lon="-1.2467">
        <ele>0.14</ele>
        <time>2024-07-11T08:00:14Z</time>
      </trkpt>
      <trkpt lat="44.71486" lon="-1.24671">
        <ele>-1.79</ele>
        <time>2024-07-11T08:00:22Z</time>
      </trkpt>
      <trkpt lat="44.71483" lon="-1.24672">
        <ele>-1.79</ele>
        <time>2024-07-11T08:00:25Z</time>
      </trkpt>
      <trkpt lat="44.7148" lon="-1.24672">
        <ele>-0.34</ele>
        <time>2024-07-11T08:00:28Z</time>
      </trkpt>
      <trkpt lat="44.71477" lon="-1.24673">
        <ele>0.62</ele>
        <time>2024-07-11T08:00:30Z</time>
      </trkpt>
      <trkpt lat="44.71464" lon="-1.24676">
        <ele>0.14</ele>
        <time>2024-07-11T08:00:41Z</time>
      </trkpt>
      <trkpt lat="44.71452" lon="-1.24679">
        <ele>0.62</ele>
        <time>2024-07-11T08:00:51Z</time>
      </trkpt>
      <trkpt lat="44.71445" lon="-1.24679">
        <ele>0.14</ele>
        <time>2024-07-11T08:00:57Z</time>
      </trkpt>
      <trkpt lat="44.71435" lon="-1.24683">
        <ele>0.14</ele>
        <time>2024-07-11T08:01:05Z</time>
      </trkpt>
      <trkpt lat="44.7143" lon="-1.24683">
        <ele>2.06</ele>
        <time>2024-07-11T08:01:11Z</time>
      </trkpt>
      <trkpt lat="44.7142" lon="-1.24686">
        <ele>0.62</ele>
        <time>2024-07-11T08:01:20Z</time>
      </trkpt>
      <trkpt lat="44.71406" lon="-1.24688">
        <ele>-0.34</ele>
        <time>2024-07-11T08:01:30Z</time>
      </trkpt>
      <trkpt lat="44.71396" lon="-1.2469">
        <ele>-1.79</ele>
        <time>2024-07-11T08:01:39Z</time>
      </trkpt>
      <trkpt lat="44.71388" lon="-1.24694">
        <ele>-2.27</ele>
        <time>2024-07-11T08:01:46Z</time>
      </trkpt>
      <trkpt lat="44.7138" lon="-1.24695">
        <ele>-4.19</ele>
        <time>2024-07-11T08:01:55Z</time>
      </trkpt>
      <trkpt lat="44.71373" lon="-1.24695">
        <ele>-3.23</ele>
        <time>2024-07-11T08:02:04Z</time>
      </trkpt>
      <trkpt lat="44.71364" lon="-1.24697">
        <ele>-1.79</ele>
        <time>2024-07-11T08:02:13Z</time>
      </trkpt>
      <trkpt lat="44.71363" lon="-1.24697">
        <ele>-2.75</ele>
        <time>2024-07-11T08:02:14Z</time>
      </trkpt>
      <trkpt lat="44.71358" lon="-1.24698">
        <ele>-2.27</ele>
        <time>2024-07-11T08:02:19Z</time>
      </trkpt>
      <trkpt lat="44.7135" lon="-1.247">
        <ele>-1.79</ele>
        <time>2024-07-11T08:02:27Z</time>
      </trkpt>
      <trkpt lat="44.7134" lon="-1.24702">
        <ele>-2.75</ele>
        <time>2024-07-11T08:02:38Z</time>
      </trkpt>
      <trkpt lat="44.71331" lon="-1.24703">
        <ele>-1.79</ele>
        <time>2024-07-11T08:02:47Z</time>
      </trkpt>
      <trkpt lat="44.71326" lon="-1.24705">
        <ele>-1.79</ele>
        <time>2024-07-11T08:02:55Z</time>
      </trkpt>
      <trkpt lat="44.71322" lon="-1.24705">
        <ele>-0.82</ele>
        <time>2024-07-11T08:03:04Z</time>
      </trkpt>
      <trkpt lat="44.71323" lon="-1.24703">
        <ele>-0.82</ele>
        <time>2024-07-11T08:03:25Z</time>
      </trkpt>
      <trkpt lat="44.71324" lon="-1.24703">
        <ele>-0.34</ele>
        <time>2024-07-11T08:03:40Z</time>
      </trkpt>
      <trkpt lat="44.7132" lon="-1.24703">
        <ele>0.14</ele>
        <time>2024-07-11T08:03:51Z</time>
      </trkpt>
      <trkpt lat="44.71309" lon="-1.24707">
        <ele>-0.34</ele>
        <time>2024-07-11T08:04:00Z</time>
      </trkpt>
      <trkpt lat="44.71303" lon="-1.24709">
        <ele>-0.82</ele>
        <time>2024-07-11T08:04:05Z</time>
      </trkpt>
      <trkpt lat="44.7129" lon="-1.24713">
        <ele>-1.79</ele>
        <time>2024-07-11T08:04:16Z</time>
      </trkpt>
      <trkpt lat="44.71282" lon="-1.24714">
        <ele>-0.34</ele>
        <time>2024-07-11T08:04:24Z</time>
      </trkpt>
      <trkpt lat="44.71277" lon="-1.24715">
        <ele>-0.34</ele>
        <time>2024-07-11T08:04:29Z</time>
      </trkpt>
      <trkpt lat="44.71274" lon="-1.24715">
        <ele>-0.82</ele>
        <time>2024-07-11T08:04:31Z</time>
      </trkpt>
      <trkpt lat="44.71262" lon="-1.24718">
        <ele>1.1</ele>
        <time>2024-07-11T08:04:41Z</time>
      </trkpt>
      <trkpt lat="44.71252" lon="-1.24718">
        <ele>0.62</ele>
        <time>2024-07-11T08:04:51Z</time>
      </trkpt>
      <trkpt lat="44.71244" lon="-1.24721">
        <ele>2.06</ele>
        <time>2024-07-11T08:05:00Z</time>
      </trkpt>
      <trkpt lat="44.71241" lon="-1.24722">
        <ele>0.62</ele>
        <time>2024-07-11T08:05:03Z</time>
      </trkpt>
      <trkpt lat="44.7123" lon="-1.24722">
        <ele>1.58</ele>
        <time>2024-07-11T08:05:13Z</time>
      </trkpt>
      <trkpt lat="44.71219" lon="-1.24723">
        <ele>1.58</ele>
        <time>2024-07-11T08:05:22Z</time>
      </trkpt>
      <trkpt lat="44.71211" lon="-1.24724">
        <ele>1.1</ele>
        <time>2024-07-11T08:05:29Z</time>
      </trkpt>
      <trkpt lat="44.71198" lon="-1.24726">
        <ele>2.54</ele>
        <time>2024-07-11T08:05:40Z</time>
      </trkpt>
      <trkpt lat="44.71191" lon="-1.24729">
        <ele>3.02</ele>
        <time>2024-07-11T08:05:46Z</time>
      </trkpt>
      <trkpt lat="44.71183" lon="-1.24729">
        <ele>3.02</ele>
        <time>2024-07-11T08:05:53Z</time>
      </trkpt>
      <trkpt lat="44.71174" lon="-1.24732">
        <ele>2.54</ele>
        <time>2024-07-11T08:06:01Z</time>
      </trkpt>
      <trkpt lat="44.71164" lon="-1.24734">
        <ele>1.1</ele>
        <time>2024-07-11T08:06:10Z</time>
      </trkpt>
      <trkpt lat="44.71153" lon="-1.24735">
        <ele>1.1</ele>
        <time>2024-07-11T08:06:20Z</time>
      </trkpt>
      <trkpt lat="44.7115" lon="-1.24736">
        <ele>1.58</ele>
        <time>2024-07-11T08:06:22Z</time>
      </trkpt>
      <trkpt lat="44.7114" lon="-1.24739">
        <ele>3.02</ele>
        <time>2024-07-11T08:06:30Z</time>
      </trkpt>
      <trkpt lat="44.7113" lon="-1.24742">
        <ele>1.1</ele>
        <time>2024-07-11T08:06:38Z</time>
      </trkpt>
      <trkpt lat="44.71129" lon="-1.24743">
        <ele>1.1</ele>
        <time>2024-07-11T08:06:39Z</time>
      </trkpt>
      <trkpt lat="44.7112" lon="-1.24744">
        <ele>2.06</ele>
        <time>2024-07-11T08:06:47Z</time>
      </trkpt>
      <trkpt lat="44.71114" lon="-1.24744">
        <ele>2.54</ele>
        <time>2024-07-11T08:06:55Z</time>
      </trkpt>
      <trkpt lat="44.71105" lon="-1.24745">
        <ele>3.5</ele>
        <time>2024-07-11T08:07:03Z</time>
      </trkpt>
      <trkpt lat="44.71102" lon="-1.24745">
        <ele>2.06</ele>
        <time>2024-07-11T08:07:06Z</time>
      </trkpt>
      <trkpt lat="44.71087" lon="-1.24749">
        <ele>3.02</ele>
        <time>2024-07-11T08:07:19Z</time>
      </trkpt>
      <trkpt lat="44.71077" lon="-1.24751">
        <ele>2.06</ele>
        <time>2024-07-11T08:07:28Z</time>
      </trkpt>
      <trkpt lat="44.71066" lon="-1.24753">
        <ele>1.58</ele>
        <time>2024-07-11T08:07:38Z</time>
      </trkpt>
      <trkpt lat="44.71056" lon="-1.24756">
        <ele>2.54</ele>
        <time>2024-07-11T08:07:47Z</time>
      </trkpt>
      <trkpt lat="44.71053" lon="-1.24756">
        <ele>3.5</ele>
        <time>2024-07-11T08:07:49Z</time>
      </trkpt>
      <trkpt lat="44.71045" lon="-1.24757">
        <ele>3.5</ele>
        <time>2024-07-11T08:07:56Z</time>
      </trkpt>
      <trkpt lat="44.71035" lon="-1.24758">
        <ele>1.58</ele>
        <time>2024-07-11T08:08:05Z</time>
      </trkpt>
      <trkpt lat="44.71024" lon="-1.24762">
        <ele>3.02</ele>
        <time>2024-07-11T08:08:14Z</time>
      </trkpt>
      <trkpt lat="44.71015" lon="-1.24763">
        <ele>3.5</ele>
        <time>2024-07-11T08:08:23Z</time>
      </trkpt>
      <trkpt lat="44.71007" lon="-1.24764">
        <ele>3.98</ele>
        <time>2024-07-11T08:08:31Z</time>
      </trkpt>
      <trkpt lat="44.71002" lon="-1.24765">
        <ele>2.54</ele>
        <time>2024-07-11T08:08:35Z</time>
      </trkpt>
      <trkpt lat="44.7099" lon="-1.24767">
        <ele>3.02</ele>
        <time>2024-07-11T08:08:45Z</time>
      </trkpt>
      <trkpt lat="44.70981" lon="-1.24769">
        <ele>4.94</ele>
        <time>2024-07-11T08:08:53Z</time>
      </trkpt>
      <trkpt lat="44.70978" lon="-1.2477">
        <ele>2.54</ele>
        <time>2024-07-11T08:08:56Z</time>
      </trkpt>
      <trkpt lat="44.70978" lon="-1.2477">
        <ele>3.98</ele>
        <time>2024-07-11T08:08:57Z</time>
      </trkpt>
      <trkpt lat="44.70976" lon="-1.24769">
        <ele>4.46</ele>
        <time>2024-07-11T08:08:59Z</time>
      </trkpt>
      <trkpt lat="44.70965" lon="-1.24772">
        <ele>3.5</ele>
        <time>2024-07-11T08:09:08Z</time>
      </trkpt>
      <trkpt lat="44.70954" lon="-1.24781">
        <ele>3.5</ele>
        <time>2024-07-11T08:09:18Z</time>
      </trkpt>
      <trkpt lat="44.70949" lon="-1.24784">
        <ele>4.94</ele>
        <time>2024-07-11T08:09:22Z</time>
      </trkpt>
      <trkpt lat="44.70944" lon="-1.24785">
        <ele>3.5</ele>
        <time>2024-07-11T08:09:26Z</time>
      </trkpt>
      <trkpt lat="44.70934" lon="-1.24786">
        <ele>4.46</ele>
        <time>2024-07-11T08:09:34Z</time>
      </trkpt>
      <trkpt lat="44.70923" lon="-1.24788">
        <ele>3.98</ele>
        <time>2024-07-11T08:09:44Z</time>
      </trkpt>
      <trkpt lat="44.70921" lon="-1.24788">
        <ele>4.94</ele>
        <time>2024-07-11T08:09:46Z</time>
      </trkpt>
      <trkpt lat="44.70912" lon="-1.24789">
        <ele>4.46</ele>
        <time>2024-07-11T08:09:54Z</time>
      </trkpt>
      <trkpt lat="44.70902" lon="-1.24791">
        <ele>5.91</ele>
        <time>2024-07-11T08:10:03Z</time>
      </trkpt>
      <trkpt lat="44.70889" lon="-1.24794">
        <ele>3.98</ele>
        <time>2024-07-11T08:10:14Z</time>
      </trkpt>
      <trkpt lat="44.70878" lon="-1.24796">
        <ele>5.42</ele>
        <time>2024-07-11T08:10:24Z</time>
      </trkpt>
      <trkpt lat="44.7087" lon="-1.24796">
        <ele>5.42</ele>
        <time>2024-07-11T08:10:31Z</time>
      </trkpt>
      <trkpt lat="44.7086" lon="-1.24798">
        <ele>4.94</ele>
        <time>2024-07-11T08:10:41Z</time>
      </trkpt>
      <trkpt lat="44.70857" lon="-1.24798">
        <ele>3.98</ele>
        <time>2024-07-11T08:10:43Z</time>
      </trkpt>
      <trkpt lat="44.70844" lon="-1.24801">
        <ele>6.87</ele>
        <time>2024-07-11T08:10:53Z</time>
      </trkpt>
      <trkpt lat="44.70843" lon="-1.24801">
        <ele>6.87</ele>
        <time>2024-07-11T08:10:54Z</time>
      </trkpt>
      <trkpt lat="44.70832" lon="-1.24799">
        <ele>8.31</ele>
        <time>2024-07-11T08:11:03Z</time>
      </trkpt>
      <trkpt lat="44.70826" lon="-1.24799">
        <ele>9.27</ele>
        <time>2024-07-11T08:11:10Z</time>
      </trkpt>
      <trkpt lat="44.70819" lon="-1.248">
        <ele>8.79</ele>
        <time>2024-07-11T08:11:19Z</time>
      </trkpt>
      <trkpt lat="44.70815" lon="-1.24802">
        <ele>8.31</ele>
        <time>2024-07-11T08:11:25Z</time>
      </trkpt>
      <trkpt lat="44.70814" lon="-1.24803">
        <ele>9.75</ele>
        <time>2024-07-11T08:11:27Z</time>
      </trkpt>
      <trkpt lat="44.70808" lon="-1.248">
        <ele>10.71</ele>
        <time>2024-07-11T08:11:34Z</time>
      </trkpt>
      <trkpt lat="44.708" lon="-1.248">
        <ele>10.23</ele>
        <time>2024-07-11T08:11:43Z</time>
      </trkpt>
      <trkpt lat="44.70791" lon="-1.24801">
        <ele>10.23</ele>
        <time>2024-07-11T08:11:51Z</time>
      </trkpt>
      <trkpt lat="44.70787" lon="-1.24803">
        <ele>10.71</ele>
        <time>2024-07-11T08:11:56Z</time>
      </trkpt>
      <trkpt lat="44.70785" lon="-1.24803">
        <ele>9.75</ele>
        <time>2024-07-11T08:11:59Z</time>
      </trkpt>
      <trkpt lat="44.70777" lon="-1.24812">
        <ele>8.79</ele>
        <time>2024-07-11T08:12:09Z</time>
      </trkpt>
      <trkpt lat="44.70766" lon="-1.24818">
        <ele>7.83</ele>
        <time>2024-07-11T08:12:18Z</time>
      </trkpt>
      <trkpt lat="44.70758" lon="-1.2482">
        <ele>6.87</ele>
        <time>2024-07-11T08:12:25Z</time>
      </trkpt>
      <trkpt lat="44.70751" lon="-1.24821">
        <ele>6.87</ele>
        <time>2024-07-11T08:12:33Z</time>
      </trkpt>
      <trkpt lat="44.70739" lon="-1.24822">
        <ele>6.39</ele>
        <time>2024-07-11T08:12:43Z</time>
      </trkpt>
      <trkpt lat="44.70737" lon="-1.24823">
        <ele>5.91</ele>
        <time>2024-07-11T08:12:45Z</time>
      </trkpt>
      <trkpt lat="44.70734" lon="-1.24823">
        <ele>6.87</ele>
        <time>2024-07-11T08:12:47Z</time>
      </trkpt>
      <trkpt lat="44.70723" lon="-1.24824">
        <ele>6.87</ele>
        <time>2024-07-11T08:12:56Z</time>
      </trkpt>
      <trkpt lat="44.70713" lon="-1.24827">
        <ele>7.35</ele>
        <time>2024-07-11T08:13:05Z</time>
      </trkpt>
      <trkpt lat="44.70704" lon="-1.24832">
        <ele>5.91</ele>
        <time>2024-07-11T08:13:13Z</time>
      </trkpt>
      <trkpt lat="44.70694" lon="-1.24838">
        <ele>4.94</ele>
        <time>2024-07-11T08:13:21Z</time>
      </trkpt>
      <trkpt lat="44.70684" lon="-1.24838">
        <ele>7.35</ele>
        <time>2024-07-11T08:13:29Z</time>
      </trkpt>
      <trkpt lat="44.70674" lon="-1.24837">
        <ele>6.39</ele>
        <time>2024-07-11T08:13:38Z</time>
      </trkpt>
      <trkpt lat="44.70664" lon="-1.24836">
        <ele>4.94</ele>
        <time>2024-07-11T08:13:46Z</time>
      </trkpt>
      <trkpt lat="44.70656" lon="-1.24834">
        <ele>3.98</ele>
        <time>2024-07-11T08:13:54Z</time>
      </trkpt>
      <trkpt lat="44.70643" lon="-1.24834">
        <ele>3.98</ele>
        <time>2024-07-11T08:14:04Z</time>
      </trkpt>
      <trkpt lat="44.70634" lon="-1.24835">
        <ele>3.02</ele>
        <time>2024-07-11T08:14:12Z</time>
      </trkpt>
      <trkpt lat="44.7062" lon="-1.24837">
        <ele>2.06</ele>
        <time>2024-07-11T08:14:22Z</time>
      </trkpt>
      <trkpt lat="44.70616" lon="-1.2484">
        <ele>2.54</ele>
        <time>2024-07-11T08:14:30Z</time>
      </trkpt>
      <trkpt lat="44.70615" lon="-1.24839">
        <ele>2.54</ele>
        <time>2024-07-11T08:14:42Z</time>
      </trkpt>
      <trkpt lat="44.70615" lon="-1.24838">
        <ele>2.06</ele>
        <time>2024-07-11T08:14:52Z</time>
      </trkpt>
      <trkpt lat="44.70617" lon="-1.24838">
        <ele>2.06</ele>
        <time>2024-07-11T08:15:05Z</time>
      </trkpt>
      <trkpt lat="44.70618" lon="-1.24839">
        <ele>2.54</ele>
        <time>2024-07-11T08:15:15Z</time>
      </trkpt>
      <trkpt lat="44.70619" lon="-1.2484">
        <ele>2.54</ele>
        <time>2024-07-11T08:15:29Z</time>
      </trkpt>
      <trkpt lat="44.70614" lon="-1.24836">
        <ele>2.54</ele>
        <time>2024-07-11T08:15:39Z</time>
      </trkpt>
      <trkpt lat="44.70614" lon="-1.24835">
        <ele>2.54</ele>
        <time>2024-07-11T08:15:51Z</time>
      </trkpt>
      <trkpt lat="44.70614" lon="-1.24834">
        <ele>2.54</ele>
        <time>2024-07-11T08:16:03Z</time>
      </trkpt>
      <trkpt lat="44.70611" lon="-1.24833">
        <ele>2.54</ele>
        <time>2024-07-11T08:16:10Z</time>
      </trkpt>
      <trkpt lat="44.70611" lon="-1.24836">
        <ele>1.58</ele>
        <time>2024-07-11T08:16:22Z</time>
      </trkpt>
      <trkpt lat="44.70612" lon="-1.24836">
        <ele>2.06</ele>
        <time>2024-07-11T08:16:39Z</time>
      </trkpt>
      <trkpt lat="44.70611" lon="-1.24836">
        <ele>1.58</ele>
        <time>2024-07-11T08:16:52Z</time>
      </trkpt>
      <trkpt lat="44.70611" lon="-1.24836">
        <ele>1.58</ele>
        <time>2024-07-11T08:17:06Z</time>
      </trkpt>
      <trkpt lat="44.70608" lon="-1.24837">
        <ele>2.06</ele>
        <time>2024-07-11T08:17:17Z</time>
      </trkpt>
      <trkpt lat="44.70603" lon="-1.24835">
        <ele>0.62</ele>
        <time>2024-07-11T08:17:25Z</time>
      </trkpt>
      <trkpt lat="44.70598" lon="-1.24837">
        <ele>1.1</ele>
        <time>2024-07-11T08:17:31Z</time>
      </trkpt>
      <trkpt lat="44.70595" lon="-1.24838">
        <ele>1.58</ele>
        <time>2024-07-11T08:17:33Z</time>
      </trkpt>
      <trkpt lat="44.70583" lon="-1.24842">
        <ele>-0.34</ele>
        <time>2024-07-11T08:17:43Z</time>
      </trkpt>
      <trkpt lat="44.70576" lon="-1.24844">
        <ele>-1.79</ele>
        <time>2024-07-11T08:17:52Z</time>
      </trkpt>
      <trkpt lat="44.70566" lon="-1.24847">
        <ele>-3.23</ele>
        <time>2024-07-11T08:18:00Z</time>
      </trkpt>
      <trkpt lat="44.70554" lon="-1.2485">
        <ele>-3.71</ele>
        <time>2024-07-11T08:18:10Z</time>
      </trkpt>
      <trkpt lat="44.70546" lon="-1.24852">
        <ele>-3.23</ele>
        <time>2024-07-11T08:18:20Z</time>
      </trkpt>
      <trkpt lat="44.7054" lon="-1.24851">
        <ele>-4.19</ele>
        <time>2024-07-11T08:18:27Z</time>
      </trkpt>
      <trkpt lat="44.70539" lon="-1.24851">
        <ele>-3.23</ele>
        <time>2024-07-11T08:18:28Z</time>
      </trkpt>
      <trkpt lat="44.70529" lon="-1.24853">
        <ele>-3.71</ele>
        <time>2024-07-11T08:18:37Z</time>
      </trkpt>
      <trkpt lat="44.70525" lon="-1.24856">
        <ele>-4.67</ele>
        <time>2024-07-11T08:18:41Z</time>
      </trkpt>
      <trkpt lat="44.70523" lon="-1.24856">
        <ele>-3.71</ele>
        <time>2024-07-11T08:18:44Z</time>
      </trkpt>
      <trkpt lat="44.70521" lon="-1.24855">
        <ele>-4.19</ele>
        <time>2024-07-11T08:18:45Z</time>
      </trkpt>
      <trkpt lat="44.70508" lon="-1.24851">
        <ele>-4.67</ele>
        <time>2024-07-11T08:18:54Z</time>
      </trkpt>
      <trkpt lat="44.70497" lon="-1.24855">
        <ele>-4.19</ele>
        <time>2024-07-11T08:19:04Z</time>
      </trkpt>
      <trkpt lat="44.70484" lon="-1.24857">
        <ele>-3.71</ele>
        <time>2024-07-11T08:19:15Z</time>
      </trkpt>
      <trkpt lat="44.7048" lon="-1.24858">
        <ele>-3.71</ele>
        <time>2024-07-11T08:19:20Z</time>
      </trkpt>
      <trkpt lat="44.70469" lon="-1.24858">
        <ele>-2.75</ele>
        <time>2024-07-11T08:19:29Z</time>
      </trkpt>
      <trkpt lat="44.70466" lon="-1.24857">
        <ele>-3.71</ele>
        <time>2024-07-11T08:19:33Z</time>
      </trkpt>
      <trkpt lat="44.70462" lon="-1.24857">
        <ele>-2.27</ele>
        <time>2024-07-11T08:19:37Z</time>
      </trkpt>
      <trkpt lat="44.70453" lon="-1.24859">
        <ele>-1.3</ele>
        <time>2024-07-11T08:19:46Z</time>
      </trkpt>
      <trkpt lat="44.70452" lon="-1.24858">
        <ele>-0.82</ele>
        <time>2024-07-11T08:19:47Z</time>
      </trkpt>
      <trkpt lat="44.70443" lon="-1.24857">
        <ele>-1.3</ele>
        <time>2024-07-11T08:19:55Z</time>
      </trkpt>
      <trkpt lat="44.70441" lon="-1.24859">
        <ele>0.14</ele>
        <time>2024-07-11T08:19:57Z</time>
      </trkpt>
      <trkpt lat="44.70437" lon="-1.24857">
        <ele>1.58</ele>
        <time>2024-07-11T08:20:01Z</time>
      </trkpt>
      <trkpt lat="44.70433" lon="-1.24856">
        <ele>3.02</ele>
        <time>2024-07-11T08:20:12Z</time>
      </trkpt>
      <trkpt lat="44.70427" lon="-1.2486">
        <ele>1.58</ele>
        <time>2024-07-11T08:20:20Z</time>
      </trkpt>
      <trkpt lat="44.70418" lon="-1.24863">
        <ele>0.14</ele>
        <time>2024-07-11T08:20:28Z</time>
      </trkpt>
      <trkpt lat="44.70416" lon="-1.24863">
        <ele>3.5</ele>
        <time>2024-07-11T08:20:30Z</time>
      </trkpt>
      <trkpt lat="44.70408" lon="-1.24865">
        <ele>0.62</ele>
        <time>2024-07-11T08:20:39Z</time>
      </trkpt>
      <trkpt lat="44.70407" lon="-1.24865">
        <ele>3.98</ele>
        <time>2024-07-11T08:20:41Z</time>
      </trkpt>
      <trkpt lat="44.70399" lon="-1.24869">
        <ele>2.06</ele>
        <time>2024-07-11T08:20:51Z</time>
      </trkpt>
      <trkpt lat="44.70388" lon="-1.24873">
        <ele>3.02</ele>
        <time>2024-07-11T08:21:01Z</time>
      </trkpt>
      <trkpt lat="44.70376" lon="-1.24876">
        <ele>2.54</ele>
        <time>2024-07-11T08:21:11Z</time>
      </trkpt>
      <trkpt lat="44.70362" lon="-1.24878">
        <ele>3.02</ele>
        <time>2024-07-11T08:21:21Z</time>
      </trkpt>
      <trkpt lat="44.70354" lon="-1.24884">
        <ele>1.58</ele>
        <time>2024-07-11T08:21:28Z</time>
      </trkpt>
      <trkpt lat="44.70342" lon="-1.24883">
        <ele>0.62</ele>
        <time>2024-07-11T08:21:37Z</time>
      </trkpt>
      <trkpt lat="44.7033" lon="-1.24887">
        <ele>1.1</ele>
        <time>2024-07-11T08:21:45Z</time>
      </trkpt>
      <trkpt lat="44.70321" lon="-1.24888">
        <ele>0.14</ele>
        <time>2024-07-11T08:21:53Z</time>
      </trkpt>
      <trkpt lat="44.70311" lon="-1.24889">
        <ele>0.62</ele>
        <time>2024-07-11T08:22:00Z</time>
      </trkpt>
      <trkpt lat="44.70299" lon="-1.24889">
        <ele>1.1</ele>
        <time>2024-07-11T08:22:09Z</time>
      </trkpt>
      <trkpt lat="44.70292" lon="-1.24888">
        <ele>1.1</ele>
        <time>2024-07-11T08:22:15Z</time>
      </trkpt>
      <trkpt lat="44.70289" lon="-1.24886">
        <ele>0.14</ele>
        <time>2024-07-11T08:22:17Z</time>
      </trkpt>
      <trkpt lat="44.70287" lon="-1.24885">
        <ele>0.62</ele>
        <time>2024-07-11T08:22:19Z</time>
      </trkpt>
      <trkpt lat="44.7028" lon="-1.24881">
        <ele>1.1</ele>
        <time>2024-07-11T08:22:24Z</time>
      </trkpt>
      <trkpt lat="44.70267" lon="-1.24876">
        <ele>0.62</ele>
        <time>2024-07-11T08:22:36Z</time>
      </trkpt>
      <trkpt lat="44.70258" lon="-1.2487">
        <ele>0.62</ele>
        <time>2024-07-11T08:22:45Z</time>
      </trkpt>
      <trkpt lat="44.70256" lon="-1.24869">
        <ele>-0.82</ele>
        <time>2024-07-11T08:22:47Z</time>
      </trkpt>
      <trkpt lat="44.70244" lon="-1.24867">
        <ele>-1.79</ele>
        <time>2024-07-11T08:22:57Z</time>
      </trkpt>
      <trkpt lat="44.70235" lon="-1.24866">
        <ele>-1.3</ele>
        <time>2024-07-11T08:23:06Z</time>
      </trkpt>
      <trkpt lat="44.70232" lon="-1.24868">
        <ele>-0.34</ele>
        <time>2024-07-11T08:23:10Z</time>
      </trkpt>
      <trkpt lat="44.70225" lon="-1.2487">
        <ele>1.58</ele>
        <time>2024-07-11T08:23:20Z</time>
      </trkpt>
      <trkpt lat="44.70223" lon="-1.24873">
        <ele>2.06</ele>
        <time>2024-07-11T08:23:26Z</time>
      </trkpt>
      <trkpt lat="44.70218" lon="-1.24883">
        <ele>1.1</ele>
        <time>2024-07-11T08:23:35Z</time>
      </trkpt>
      <trkpt lat="44.70215" lon="-1.24886">
        <ele>2.54</ele>
        <time>2024-07-11T08:23:38Z</time>
      </trkpt>
      <trkpt lat="44.70207" lon="-1.24889">
        <ele>2.06</ele>
        <time>2024-07-11T08:23:44Z</time>
      </trkpt>
      <trkpt lat="44.70197" lon="-1.24892">
        <ele>2.54</ele>
        <time>2024-07-11T08:23:54Z</time>
      </trkpt>
      <trkpt lat="44.70189" lon="-1.24896">
        <ele>4.46</ele>
        <time>2024-07-11T08:24:04Z</time>
      </trkpt>
      <trkpt lat="44.70187" lon="-1.24898">
        <ele>3.5</ele>
        <time>2024-07-11T08:24:07Z</time>
      </trkpt>
      <trkpt lat="44.70177" lon="-1.24904">
        <ele>6.39</ele>
        <time>2024-07-11T08:24:18Z</time>
      </trkpt>
      <trkpt lat="44.70174" lon="-1.24905">
        <ele>7.35</ele>
        <time>2024-07-11T08:24:20Z</time>
      </trkpt>
      <trkpt lat="44.70172" lon="-1.24906">
        <ele>4.94</ele>
        <time>2024-07-11T08:24:22Z</time>
      </trkpt>
      <trkpt lat="44.70164" lon="-1.24911">
        <ele>7.83</ele>
        <time>2024-07-11T08:24:31Z</time>
      </trkpt>
      <trkpt lat="44.70155" lon="-1.24913">
        <ele>9.27</ele>
        <time>2024-07-11T08:24:40Z</time>
      </trkpt>
      <trkpt lat="44.70146" lon="-1.24914">
        <ele>9.27</ele>
        <time>2024-07-11T08:24:48Z</time>
      </trkpt>
      <trkpt lat="44.70136" lon="-1.24912">
        <ele>9.27</ele>
        <time>2024-07-11T08:24:57Z</time>
      </trkpt>
      <trkpt lat="44.70134" lon="-1.24912">
        <ele>8.79</ele>
        <time>2024-07-11T08:24:59Z</time>
      </trkpt>
      <trkpt lat="44.7013" lon="-1.24913">
        <ele>10.23</ele>
        <time>2024-07-11T08:25:02Z</time>
      </trkpt>
      <trkpt lat="44.70127" lon="-1.24912">
        <ele>8.79</ele>
        <time>2024-07-11T08:25:05Z</time>
      </trkpt>
      <trkpt lat="44.70117" lon="-1.24911">
        <ele>8.79</ele>
        <time>2024-07-11T08:25:13Z</time>
      </trkpt>
      <trkpt lat="44.70107" lon="-1.24914">
        <ele>9.75</ele>
        <time>2024-07-11T08:25:22Z</time>
      </trkpt>
      <trkpt lat="44.70098" lon="-1.24914">
        <ele>10.23</ele>
        <time>2024-07-11T08:25:31Z</time>
      </trkpt>
      <trkpt lat="44.70088" lon="-1.24916">
        <ele>9.75</ele>
        <time>2024-07-11T08:25:40Z</time>
      </trkpt>
      <trkpt lat="44.70082" lon="-1.24918">
        <ele>10.23</ele>
        <time>2024-07-11T08:25:44Z</time>
      </trkpt>
      <trkpt lat="44.70072" lon="-1.24918">
        <ele>10.71</ele>
        <time>2024-07-11T08:25:53Z</time>
      </trkpt>
      <trkpt lat="44.70064" lon="-1.24918">
        <ele>12.15</ele>
        <time>2024-07-11T08:26:01Z</time>
      </trkpt>
      <trkpt lat="44.7006" lon="-1.2492">
        <ele>10.23</ele>
        <time>2024-07-11T08:26:04Z</time>
      </trkpt>
      <trkpt lat="44.70058" lon="-1.24923">
        <ele>10.71</ele>
        <time>2024-07-11T08:26:06Z</time>
      </trkpt>
      <trkpt lat="44.70048" lon="-1.24926">
        <ele>10.71</ele>
        <time>2024-07-11T08:26:15Z</time>
      </trkpt>
      <trkpt lat="44.70041" lon="-1.24926">
        <ele>13.6</ele>
        <time>2024-07-11T08:26:21Z</time>
      </trkpt>
      <trkpt lat="44.70034" lon="-1.24928">
        <ele>11.19</ele>
        <time>2024-07-11T08:26:29Z</time>
      </trkpt>
      <trkpt lat="44.70023" lon="-1.2493">
        <ele>12.15</ele>
        <time>2024-07-11T08:26:37Z</time>
      </trkpt>
      <trkpt lat="44.70014" lon="-1.2493">
        <ele>12.63</ele>
        <time>2024-07-11T08:26:44Z</time>
      </trkpt>
      <trkpt lat="44.70003" lon="-1.24934">
        <ele>12.63</ele>
        <time>2024-07-11T08:26:53Z</time>
      </trkpt>
      <trkpt lat="44.69996" lon="-1.24937">
        <ele>11.67</ele>
        <time>2024-07-11T08:26:59Z</time>
      </trkpt>
      <trkpt lat="44.69984" lon="-1.24938">
        <ele>13.12</ele>
        <time>2024-07-11T08:27:08Z</time>
      </trkpt>
      <trkpt lat="44.69975" lon="-1.24939">
        <ele>13.12</ele>
        <time>2024-07-11T08:27:17Z</time>
      </trkpt>
      <trkpt lat="44.69963" lon="-1.24942">
        <ele>14.08</ele>
        <time>2024-07-11T08:27:26Z</time>
      </trkpt>
      <trkpt lat="44.69958" lon="-1.24942">
        <ele>12.63</ele>
        <time>2024-07-11T08:27:32Z</time>
      </trkpt>
      <trkpt lat="44.69948" lon="-1.24945">
        <ele>13.6</ele>
        <time>2024-07-11T08:27:43Z</time>
      </trkpt>
      <trkpt lat="44.69945" lon="-1.24945">
        <ele>15.04</ele>
        <time>2024-07-11T08:27:46Z</time>
      </trkpt>
      <trkpt lat="44.69937" lon="-1.24946">
        <ele>15.04</ele>
        <time>2024-07-11T08:27:55Z</time>
      </trkpt>
      <trkpt lat="44.69933" lon="-1.24946">
        <ele>13.6</ele>
        <time>2024-07-11T08:27:59Z</time>
      </trkpt>
      <trkpt lat="44.69924" lon="-1.24947">
        <ele>14.56</ele>
        <time>2024-07-11T08:28:09Z</time>
      </trkpt>
      <trkpt lat="44.69915" lon="-1.24949">
        <ele>13.6</ele>
        <time>2024-07-11T08:28:17Z</time>
      </trkpt>
      <trkpt lat="44.69908" lon="-1.24951">
        <ele>14.08</ele>
        <time>2024-07-11T08:28:23Z</time>
      </trkpt>
      <trkpt lat="44.69897" lon="-1.24953">
        <ele>14.56</ele>
        <time>2024-07-11T08:28:32Z</time>
      </trkpt>
      <trkpt lat="44.69888" lon="-1.24955">
        <ele>13.12</ele>
        <time>2024-07-11T08:28:40Z</time>
      </trkpt>
      <trkpt lat="44.69879" lon="-1.24956">
        <ele>13.6</ele>
        <time>2024-07-11T08:28:47Z</time>
      </trkpt>
      <trkpt lat="44.69874" lon="-1.24958">
        <ele>13.12</ele>
        <time>2024-07-11T08:28:52Z</time>
      </trkpt>
      <trkpt lat="44.69862" lon="-1.24959">
        <ele>13.6</ele>
        <time>2024-07-11T08:29:01Z</time>
      </trkpt>
      <trkpt lat="44.6985" lon="-1.24961">
        <ele>13.6</ele>
        <time>2024-07-11T08:29:11Z</time>
      </trkpt>
      <trkpt lat="44.69841" lon="-1.24963">
        <ele>14.56</ele>
        <time>2024-07-11T08:29:20Z</time>
      </trkpt>
      <trkpt lat="44.69836" lon="-1.24963">
        <ele>12.63</ele>
        <time>2024-07-11T08:29:24Z</time>
      </trkpt>
      <trkpt lat="44.69835" lon="-1.24963">
        <ele>13.6</ele>
        <time>2024-07-11T08:29:26Z</time>
      </trkpt>
      <trkpt lat="44.69825" lon="-1.24962">
        <ele>13.12</ele>
        <time>2024-07-11T08:29:36Z</time>
      </trkpt>
      <trkpt lat="44.69816" lon="-1.24965">
        <ele>15.04</ele>
        <time>2024-07-11T08:29:44Z</time>
      </trkpt>
      <trkpt lat="44.69812" lon="-1.24966">
        <ele>15.04</ele>
        <time>2024-07-11T08:29:50Z</time>
      </trkpt>
      <trkpt lat="44.69805" lon="-1.24968">
        <ele>14.56</ele>
        <time>2024-07-11T08:29:58Z</time>
      </trkpt>
      <trkpt lat="44.69804" lon="-1.24967">
        <ele>15.52</ele>
        <time>2024-07-11T08:29:59Z</time>
      </trkpt>
      <trkpt lat="44.698" lon="-1.24967">
        <ele>15.52</ele>
        <time>2024-07-11T08:30:03Z</time>
      </trkpt>
      <trkpt lat="44.6979" lon="-1.24967">
        <ele>16</ele>
        <time>2024-07-11T08:30:14Z</time>
      </trkpt>
      <trkpt lat="44.69783" lon="-1.24968">
        <ele>16.48</ele>
        <time>2024-07-11T08:30:22Z</time>
      </trkpt>
      <trkpt lat="44.69775" lon="-1.24968">
        <ele>16</ele>
        <time>2024-07-11T08:30:31Z</time>
      </trkpt>
      <trkpt lat="44.69764" lon="-1.24968">
        <ele>15.52</ele>
        <time>2024-07-11T08:30:40Z</time>
      </trkpt>
      <trkpt lat="44.69756" lon="-1.24968">
        <ele>14.56</ele>
        <time>2024-07-11T08:30:49Z</time>
      </trkpt>
      <trkpt lat="44.6975" lon="-1.24965">
        <ele>15.52</ele>
        <time>2024-07-11T08:30:56Z</time>
      </trkpt>
      <trkpt lat="44.69749" lon="-1.24965">
        <ele>16</ele>
        <time>2024-07-11T08:30:57Z</time>
      </trkpt>
      <trkpt lat="44.69744" lon="-1.24961">
        <ele>14.56</ele>
        <time>2024-07-11T08:31:05Z</time>
      </trkpt>
      <trkpt lat="44.69739" lon="-1.24961">
        <ele>14.56</ele>
        <time>2024-07-11T08:31:11Z</time>
      </trkpt>
      <trkpt lat="44.69737" lon="-1.24962">
        <ele>15.52</ele>
        <time>2024-07-11T08:31:13Z</time>
      </trkpt>
      <trkpt lat="44.69732" lon="-1.24963">
        <ele>14.08</ele>
        <time>2024-07-11T08:31:19Z</time>
      </trkpt>
      <trkpt lat="44.69727" lon="-1.24966">
        <ele>14.08</ele>
        <time>2024-07-11T08:31:24Z</time>
      </trkpt>
      <trkpt lat="44.69719" lon="-1.2497">
        <ele>14.56</ele>
        <time>2024-07-11T08:31:33Z</time>
      </trkpt>
      <trkpt lat="44.69714" lon="-1.24974">
        <ele>14.08</ele>
        <time>2024-07-11T08:31:41Z</time>
      </trkpt>
      <trkpt lat="44.69712" lon="-1.24977">
        <ele>14.56</ele>
        <time>2024-07-11T08:31:52Z</time>
      </trkpt>
      <trkpt lat="44.69713" lon="-1.24975">
        <ele>14.56</ele>
        <time>2024-07-11T08:32:04Z</time>
      </trkpt>
      <trkpt lat="44.69713" lon="-1.24974">
        <ele>14.56</ele>
        <time>2024-07-11T08:32:22Z</time>
      </trkpt>
      <trkpt lat="44.69713" lon="-1.24974">
        <ele>15.04</ele>
        <time>2024-07-11T08:32:41Z</time>
      </trkpt>
      <trkpt lat="44.69714" lon="-1.24974">
        <ele>15.04</ele>
        <time>2024-07-11T08:32:59Z</time>
      </trkpt>
      <trkpt lat="44.69714" lon="-1.24973">
        <ele>14.56</ele>
        <time>2024-07-11T08:33:12Z</time>
      </trkpt>
      <trkpt lat="44.69714" lon="-1.24973">
        <ele>15.04</ele>
        <time>2024-07-11T08:33:24Z</time>
      </trkpt>
      <trkpt lat="44.69714" lon="-1.24973">
        <ele>8.31</ele>
        <time>2024-07-11T08:33:35Z</time>
      </trkpt>
      <trkpt lat="44.69714" lon="-1.24973">
        <ele>15.52</ele>
        <time>2024-07-11T08:33:36Z</time>
      </trkpt>
      <trkpt lat="44.69714" lon="-1.24973">
        <ele>3.98</ele>
        <time>2024-07-11T08:33:46Z</time>
      </trkpt>
      <trkpt lat="44.69714" lon="-1.24973">
        <ele>15.04</ele>
        <time>2024-07-11T08:33:47Z</time>
      </trkpt>
      <trkpt lat="44.69714" lon="-1.24973">
        <ele>15.04</ele>
        <time>2024-07-11T08:34:04Z</time>
      </trkpt>
      <trkpt lat="44.69713" lon="-1.24972">
        <ele>15.04</ele>
        <time>2024-07-11T08:34:11Z</time>
      </trkpt>
      <trkpt lat="44.69713" lon="-1.24971">
        <ele>15.04</ele>
        <time>2024-07-11T08:34:13Z</time>
      </trkpt>
      <trkpt lat="44.69711" lon="-1.24964">
        <ele>14.56</ele>
        <time>2024-07-11T08:34:19Z</time>
      </trkpt>
      <trkpt lat="44.69706" lon="-1.2495">
        <ele>11.19</ele>
        <time>2024-07-11T08:34:28Z</time>
      </trkpt>
      <trkpt lat="44.69704" lon="-1.24945">
        <ele>12.63</ele>
        <time>2024-07-11T08:34:31Z</time>
      </trkpt>
      <trkpt lat="44.69702" lon="-1.24937">
        <ele>11.67</ele>
        <time>2024-07-11T08:34:37Z</time>
      </trkpt>
      <trkpt lat="44.69696" lon="-1.24921">
        <ele>8.79</ele>
        <time>2024-07-11T08:34:47Z</time>
      </trkpt>
      <trkpt lat="44.69694" lon="-1.24917">
        <ele>10.23</ele>
        <time>2024-07-11T08:34:50Z</time>
      </trkpt>
      <trkpt lat="44.6969" lon="-1.24906">
        <ele>10.71</ele>
        <time>2024-07-11T08:34:58Z</time>
      </trkpt>
      <trkpt lat="44.69689" lon="-1.24903">
        <ele>9.27</ele>
        <time>2024-07-11T08:35:00Z</time>
      </trkpt>
      <trkpt lat="44.69686" lon="-1.24898">
        <ele>8.79</ele>
        <time>2024-07-11T08:35:03Z</time>
      </trkpt>
      <trkpt lat="44.6968" lon="-1.24884">
        <ele>7.35</ele>
        <time>2024-07-11T08:35:13Z</time>
      </trkpt>
      <trkpt lat="44.69679" lon="-1.24879">
        <ele>6.87</ele>
        <time>2024-07-11T08:35:16Z</time>
      </trkpt>
      <trkpt lat="44.69671" lon="-1.2486">
        <ele>6.39</ele>
        <time>2024-07-11T08:35:28Z</time>
      </trkpt>
      <trkpt lat="44.69666" lon="-1.24846">
        <ele>4.94</ele>
        <time>2024-07-11T08:35:38Z</time>
      </trkpt>
      <trkpt lat="44.69661" lon="-1.24828">
        <ele>3.98</ele>
        <time>2024-07-11T08:35:48Z</time>
      </trkpt>
      <trkpt lat="44.69655" lon="-1.24806">
        <ele>3.02</ele>
        <time>2024-07-11T08:35:57Z</time>
      </trkpt>
      <trkpt lat="44.6965" lon="-1.24788">
        <ele>2.54</ele>
        <time>2024-07-11T08:36:05Z</time>
      </trkpt>
      <trkpt lat="44.6965" lon="-1.24774">
        <ele>2.06</ele>
        <time>2024-07-11T08:36:15Z</time>
      </trkpt>
      <trkpt lat="44.69648" lon="-1.24752">
        <ele>1.58</ele>
        <time>2024-07-11T08:36:28Z</time>
      </trkpt>
      <trkpt lat="44.69649" lon="-1.24742">
        <ele>1.58</ele>
        <time>2024-07-11T08:36:35Z</time>
      </trkpt>
      <trkpt lat="44.69648" lon="-1.24728">
        <ele>0.62</ele>
        <time>2024-07-11T08:36:45Z</time>
      </trkpt>
      <trkpt lat="44.69647" lon="-1.24711">
        <ele>0.14</ele>
        <time>2024-07-11T08:36:55Z</time>
      </trkpt>
      <trkpt lat="44.69654" lon="-1.24698">
        <ele>0.14</ele>
        <time>2024-07-11T08:37:05Z</time>
      </trkpt>
      <trkpt lat="44.69656" lon="-1.24695">
        <ele>0.62</ele>
        <time>2024-07-11T08:37:07Z</time>
      </trkpt>
      <trkpt lat="44.69658" lon="-1.24691">
        <ele>-0.34</ele>
        <time>2024-07-11T08:37:10Z</time>
      </trkpt>
      <trkpt lat="44.69662" lon="-1.24684">
        <ele>1.1</ele>
        <time>2024-07-11T08:37:15Z</time>
      </trkpt>
      <trkpt lat="44.69664" lon="-1.24682">
        <ele>-0.34</ele>
        <time>2024-07-11T08:37:17Z</time>
      </trkpt>
      <trkpt lat="44.69671" lon="-1.2467">
        <ele>0.62</ele>
        <time>2024-07-11T08:37:26Z</time>
      </trkpt>
      <trkpt lat="44.6967" lon="-1.24657">
        <ele>1.1</ele>
        <time>2024-07-11T08:37:34Z</time>
      </trkpt>
      <trkpt lat="44.69671" lon="-1.24643">
        <ele>-0.82</ele>
        <time>2024-07-11T08:37:44Z</time>
      </trkpt>
      <trkpt lat="44.69669" lon="-1.24631">
        <ele>2.54</ele>
        <time>2024-07-11T08:37:50Z</time>
      </trkpt>
      <trkpt lat="44.69675" lon="-1.24616">
        <ele>1.58</ele>
        <time>2024-07-11T08:37:58Z</time>
      </trkpt>
      <trkpt lat="44.69686" lon="-1.24608">
        <ele>0.62</ele>
        <time>2024-07-11T08:38:08Z</time>
      </trkpt>
      <trkpt lat="44.697" lon="-1.24601">
        <ele>1.58</ele>
        <time>2024-07-11T08:38:18Z</time>
      </trkpt>
      <trkpt lat="44.69706" lon="-1.24594">
        <ele>-0.34</ele>
        <time>2024-07-11T08:38:26Z</time>
      </trkpt>
      <trkpt lat="44.69709" lon="-1.2459">
        <ele>1.1</ele>
        <time>2024-07-11T08:38:29Z</time>
      </trkpt>
      <trkpt lat="44.69726" lon="-1.24581">
        <ele>0.14</ele>
        <time>2024-07-11T08:38:39Z</time>
      </trkpt>
      <trkpt lat="44.69734" lon="-1.24582">
        <ele>-0.82</ele>
        <time>2024-07-11T08:38:47Z</time>
      </trkpt>
      <trkpt lat="44.69736" lon="-1.24583">
        <ele>0.14</ele>
        <time>2024-07-11T08:38:49Z</time>
      </trkpt>
      <trkpt lat="44.69745" lon="-1.24579">
        <ele>-0.82</ele>
        <time>2024-07-11T08:38:56Z</time>
      </trkpt>
      <trkpt lat="44.69748" lon="-1.24577">
        <ele>1.1</ele>
        <time>2024-07-11T08:38:58Z</time>
      </trkpt>
      <trkpt lat="44.69751" lon="-1.24572">
        <ele>-0.82</ele>
        <time>2024-07-11T08:39:01Z</time>
      </trkpt>
      <trkpt lat="44.69759" lon="-1.24567">
        <ele>-0.82</ele>
        <time>2024-07-11T08:39:09Z</time>
      </trkpt>
      <trkpt lat="44.69773" lon="-1.2457">
        <ele>1.1</ele>
        <time>2024-07-11T08:39:19Z</time>
      </trkpt>
      <trkpt lat="44.69784" lon="-1.24577">
        <ele>0.14</ele>
        <time>2024-07-11T08:39:29Z</time>
      </trkpt>
      <trkpt lat="44.69796" lon="-1.24586">
        <ele>0.14</ele>
        <time>2024-07-11T08:39:41Z</time>
      </trkpt>
      <trkpt lat="44.69811" lon="-1.24593">
        <ele>-0.34</ele>
        <time>2024-07-11T08:39:52Z</time>
      </trkpt>
      <trkpt lat="44.69813" lon="-1.24594">
        <ele>0.14</ele>
        <time>2024-07-11T08:39:53Z</time>
      </trkpt>
      <trkpt lat="44.69829" lon="-1.24597">
        <ele>-1.3</ele>
        <time>2024-07-11T08:40:03Z</time>
      </trkpt>
      <trkpt lat="44.6983" lon="-1.24594">
        <ele>0.14</ele>
        <time>2024-07-11T08:40:05Z</time>
      </trkpt>
      <trkpt lat="44.69831" lon="-1.24583">
        <ele>1.1</ele>
        <time>2024-07-11T08:40:11Z</time>
      </trkpt>
      <trkpt lat="44.69831" lon="-1.24579">
        <ele>1.58</ele>
        <time>2024-07-11T08:40:13Z</time>
      </trkpt>
      <trkpt lat="44.69831" lon="-1.2456">
        <ele>0.62</ele>
        <time>2024-07-11T08:40:24Z</time>
      </trkpt>
      <trkpt lat="44.69831" lon="-1.24559">
        <ele>0.62</ele>
        <time>2024-07-11T08:40:25Z</time>
      </trkpt>
      <trkpt lat="44.69832" lon="-1.24542">
        <ele>0.62</ele>
        <time>2024-07-11T08:40:35Z</time>
      </trkpt>
      <trkpt lat="44.69832" lon="-1.24522">
        <ele>0.14</ele>
        <time>2024-07-11T08:40:46Z</time>
      </trkpt>
      <trkpt lat="44.69832" lon="-1.24519">
        <ele>1.1</ele>
        <time>2024-07-11T08:40:48Z</time>
      </trkpt>
      <trkpt lat="44.69833" lon="-1.24515">
        <ele>2.06</ele>
        <time>2024-07-11T08:40:50Z</time>
      </trkpt>
      <trkpt lat="44.6983" lon="-1.24494">
        <ele>2.06</ele>
        <time>2024-07-11T08:41:00Z</time>
      </trkpt>
      <trkpt lat="44.6983" lon="-1.2449">
        <ele>3.02</ele>
        <time>2024-07-11T08:41:02Z</time>
      </trkpt>
      <trkpt lat="44.69829" lon="-1.24485">
        <ele>1.1</ele>
        <time>2024-07-11T08:41:04Z</time>
      </trkpt>
      <trkpt lat="44.6983" lon="-1.24476">
        <ele>0.62</ele>
        <time>2024-07-11T08:41:09Z</time>
      </trkpt>
      <trkpt lat="44.69833" lon="-1.24451">
        <ele>1.1</ele>
        <time>2024-07-11T08:41:20Z</time>
      </trkpt>
      <trkpt lat="44.69834" lon="-1.24439">
        <ele>3.5</ele>
        <time>2024-07-11T08:41:27Z</time>
      </trkpt>
      <trkpt lat="44.69836" lon="-1.2443">
        <ele>2.54</ele>
        <time>2024-07-11T08:41:39Z</time>
      </trkpt>
      <trkpt lat="44.69837" lon="-1.24429">
        <ele>2.06</ele>
        <time>2024-07-11T08:41:40Z</time>
      </trkpt>
      <trkpt lat="44.69835" lon="-1.24403">
        <ele>2.06</ele>
        <time>2024-07-11T08:41:50Z</time>
      </trkpt>
      <trkpt lat="44.69836" lon="-1.24394">
        <ele>3.02</ele>
        <time>2024-07-11T08:41:54Z</time>
      </trkpt>
      <trkpt lat="44.69838" lon="-1.2439">
        <ele>3.02</ele>
        <time>2024-07-11T08:41:56Z</time>
      </trkpt>
      <trkpt lat="44.69841" lon="-1.24379">
        <ele>3.98</ele>
        <time>2024-07-11T08:42:02Z</time>
      </trkpt>
      <trkpt lat="44.6985" lon="-1.2437">
        <ele>2.54</ele>
        <time>2024-07-11T08:42:11Z</time>
      </trkpt>
      <trkpt lat="44.69857" lon="-1.24355">
        <ele>1.1</ele>
        <time>2024-07-11T08:42:21Z</time>
      </trkpt>
      <trkpt lat="44.69856" lon="-1.24333">
        <ele>3.98</ele>
        <time>2024-07-11T08:42:31Z</time>
      </trkpt>
      <trkpt lat="44.6986" lon="-1.24316">
        <ele>3.5</ele>
        <time>2024-07-11T08:42:43Z</time>
      </trkpt>
      <trkpt lat="44.69862" lon="-1.24295">
        <ele>5.42</ele>
        <time>2024-07-11T08:42:54Z</time>
      </trkpt>
      <trkpt lat="44.69863" lon="-1.24275">
        <ele>8.79</ele>
        <time>2024-07-11T08:43:05Z</time>
      </trkpt>
      <trkpt lat="44.69862" lon="-1.24274">
        <ele>5.91</ele>
        <time>2024-07-11T08:43:07Z</time>
      </trkpt>
      <trkpt lat="44.69862" lon="-1.24267">
        <ele>8.79</ele>
        <time>2024-07-11T08:43:10Z</time>
      </trkpt>
      <trkpt lat="44.69872" lon="-1.24247">
        <ele>6.87</ele>
        <time>2024-07-11T08:43:23Z</time>
      </trkpt>
      <trkpt lat="44.69872" lon="-1.24242">
        <ele>9.75</ele>
        <time>2024-07-11T08:43:27Z</time>
      </trkpt>
      <trkpt lat="44.69873" lon="-1.24218">
        <ele>9.27</ele>
        <time>2024-07-11T08:43:40Z</time>
      </trkpt>
      <trkpt lat="44.69873" lon="-1.24199">
        <ele>8.31</ele>
        <time>2024-07-11T08:43:50Z</time>
      </trkpt>
      <trkpt lat="44.69877" lon="-1.24185">
        <ele>9.27</ele>
        <time>2024-07-11T08:43:59Z</time>
      </trkpt>
      <trkpt lat="44.69877" lon="-1.24182">
        <ele>10.71</ele>
        <time>2024-07-11T08:44:01Z</time>
      </trkpt>
      <trkpt lat="44.69881" lon="-1.24176">
        <ele>10.23</ele>
        <time>2024-07-11T08:44:07Z</time>
      </trkpt>
      <trkpt lat="44.69876" lon="-1.24163">
        <ele>8.31</ele>
        <time>2024-07-11T08:44:15Z</time>
      </trkpt>
      <trkpt lat="44.69871" lon="-1.24148">
        <ele>8.79</ele>
        <time>2024-07-11T08:44:24Z</time>
      </trkpt>
      <trkpt lat="44.69869" lon="-1.24137">
        <ele>7.35</ele>
        <time>2024-07-11T08:44:33Z</time>
      </trkpt>
      <trkpt lat="44.6987" lon="-1.24136">
        <ele>9.27</ele>
        <time>2024-07-11T08:44:42Z</time>
      </trkpt>
      <trkpt lat="44.69877" lon="-1.24136">
        <ele>9.27</ele>
        <time>2024-07-11T08:44:51Z</time>
      </trkpt>
      <trkpt lat="44.69885" lon="-1.24135">
        <ele>10.71</ele>
        <time>2024-07-11T08:44:59Z</time>
      </trkpt>
      <trkpt lat="44.69887" lon="-1.24135">
        <ele>9.27</ele>
        <time>2024-07-11T08:45:02Z</time>
      </trkpt>
      <trkpt lat="44.69891" lon="-1.24136">
        <ele>11.19</ele>
        <time>2024-07-11T08:45:06Z</time>
      </trkpt>
      <trkpt lat="44.69901" lon="-1.24134">
        <ele>9.75</ele>
        <time>2024-07-11T08:45:16Z</time>
      </trkpt>
      <trkpt lat="44.69904" lon="-1.24134">
        <ele>10.71</ele>
        <time>2024-07-11T08:45:19Z</time>
      </trkpt>
      <trkpt lat="44.6991" lon="-1.24135">
        <ele>9.75</ele>
        <time>2024-07-11T08:45:23Z</time>
      </trkpt>
      <trkpt lat="44.69921" lon="-1.24133">
        <ele>10.23</ele>
        <time>2024-07-11T08:45:32Z</time>
      </trkpt>
      <trkpt lat="44.69925" lon="-1.2413">
        <ele>8.79</ele>
        <time>2024-07-11T08:45:35Z</time>
      </trkpt>
      <trkpt lat="44.69935" lon="-1.2413">
        <ele>7.83</ele>
        <time>2024-07-11T08:45:42Z</time>
      </trkpt>
      <trkpt lat="44.69943" lon="-1.24128">
        <ele>6.39</ele>
        <time>2024-07-11T08:45:51Z</time>
      </trkpt>
      <trkpt lat="44.69951" lon="-1.24127">
        <ele>5.91</ele>
        <time>2024-07-11T08:45:58Z</time>
      </trkpt>
      <trkpt lat="44.6996" lon="-1.24121">
        <ele>5.42</ele>
        <time>2024-07-11T08:46:07Z</time>
      </trkpt>
      <trkpt lat="44.69962" lon="-1.24116">
        <ele>7.83</ele>
        <time>2024-07-11T08:46:10Z</time>
      </trkpt>
      <trkpt lat="44.69969" lon="-1.24116">
        <ele>5.42</ele>
        <time>2024-07-11T08:46:16Z</time>
      </trkpt>
      <trkpt lat="44.69975" lon="-1.24114">
        <ele>7.35</ele>
        <time>2024-07-11T08:46:22Z</time>
      </trkpt>
      <trkpt lat="44.69984" lon="-1.24116">
        <ele>8.79</ele>
        <time>2024-07-11T08:46:32Z</time>
      </trkpt>
      <trkpt lat="44.69987" lon="-1.24116">
        <ele>7.35</ele>
        <time>2024-07-11T08:46:34Z</time>
      </trkpt>
      <trkpt lat="44.69999" lon="-1.24119">
        <ele>6.39</ele>
        <time>2024-07-11T08:46:41Z</time>
      </trkpt>
      <trkpt lat="44.70006" lon="-1.24118">
        <ele>4.94</ele>
        <time>2024-07-11T08:46:46Z</time>
      </trkpt>
      <trkpt lat="44.70016" lon="-1.2412">
        <ele>2.54</ele>
        <time>2024-07-11T08:46:56Z</time>
      </trkpt>
      <trkpt lat="44.70019" lon="-1.2412">
        <ele>3.5</ele>
        <time>2024-07-11T08:46:58Z</time>
      </trkpt>
      <trkpt lat="44.70028" lon="-1.24112">
        <ele>2.54</ele>
        <time>2024-07-11T08:47:07Z</time>
      </trkpt>
      <trkpt lat="44.70035" lon="-1.24112">
        <ele>4.46</ele>
        <time>2024-07-11T08:47:11Z</time>
      </trkpt>
      <trkpt lat="44.70036" lon="-1.24112">
        <ele>3.02</ele>
        <time>2024-07-11T08:47:13Z</time>
      </trkpt>
      <trkpt lat="44.70045" lon="-1.24115">
        <ele>2.54</ele>
        <time>2024-07-11T08:47:21Z</time>
      </trkpt>
      <trkpt lat="44.70056" lon="-1.24115">
        <ele>4.94</ele>
        <time>2024-07-11T08:47:32Z</time>
      </trkpt>
      <trkpt lat="44.70059" lon="-1.24115">
        <ele>3.5</ele>
        <time>2024-07-11T08:47:34Z</time>
      </trkpt>
      <trkpt lat="44.70069" lon="-1.24116">
        <ele>3.98</ele>
        <time>2024-07-11T08:47:42Z</time>
      </trkpt>
      <trkpt lat="44.70075" lon="-1.24115">
        <ele>4.46</ele>
        <time>2024-07-11T08:47:48Z</time>
      </trkpt>
      <trkpt lat="44.70079" lon="-1.24114">
        <ele>2.54</ele>
        <time>2024-07-11T08:47:51Z</time>
      </trkpt>
      <trkpt lat="44.70085" lon="-1.24113">
        <ele>2.54</ele>
        <time>2024-07-11T08:47:58Z</time>
      </trkpt>
      <trkpt lat="44.70094" lon="-1.24111">
        <ele>1.1</ele>
        <time>2024-07-11T08:48:05Z</time>
      </trkpt>
      <trkpt lat="44.70097" lon="-1.24109">
        <ele>3.5</ele>
        <time>2024-07-11T08:48:08Z</time>
      </trkpt>
      <trkpt lat="44.701" lon="-1.24107">
        <ele>3.5</ele>
        <time>2024-07-11T08:48:11Z</time>
      </trkpt>
      <trkpt lat="44.70105" lon="-1.24103">
        <ele>2.54</ele>
        <time>2024-07-11T08:48:16Z</time>
      </trkpt>
      <trkpt lat="44.70117" lon="-1.24103">
        <ele>2.06</ele>
        <time>2024-07-11T08:48:24Z</time>
      </trkpt>
      <trkpt lat="44.70118" lon="-1.24103">
        <ele>2.06</ele>
        <time>2024-07-11T08:48:25Z</time>
      </trkpt>
      <trkpt lat="44.70128" lon="-1.24101">
        <ele>0.62</ele>
        <time>2024-07-11T08:48:34Z</time>
      </trkpt>
      <trkpt lat="44.70136" lon="-1.24102">
        <ele>0.14</ele>
        <time>2024-07-11T08:48:42Z</time>
      </trkpt>
      <trkpt lat="44.70137" lon="-1.24102">
        <ele>-0.34</ele>
        <time>2024-07-11T08:48:43Z</time>
      </trkpt>
      <trkpt lat="44.70146" lon="-1.241">
        <ele>-0.34</ele>
        <time>2024-07-11T08:48:53Z</time>
      </trkpt>
      <trkpt lat="44.70152" lon="-1.24099">
        <ele>2.54</ele>
        <time>2024-07-11T08:48:58Z</time>
      </trkpt>
      <trkpt lat="44.70159" lon="-1.24098">
        <ele>-0.82</ele>
        <time>2024-07-11T08:49:04Z</time>
      </trkpt>
      <trkpt lat="44.70166" lon="-1.24099">
        <ele>2.54</ele>
        <time>2024-07-11T08:49:09Z</time>
      </trkpt>
      <trkpt lat="44.70173" lon="-1.24096">
        <ele>2.54</ele>
        <time>2024-07-11T08:49:15Z</time>
      </trkpt>
      <trkpt lat="44.70177" lon="-1.24095">
        <ele>2.54</ele>
        <time>2024-07-11T08:49:19Z</time>
      </trkpt>
      <trkpt lat="44.70182" lon="-1.24096">
        <ele>3.5</ele>
        <time>2024-07-11T08:49:25Z</time>
      </trkpt>
      <trkpt lat="44.70185" lon="-1.24096">
        <ele>3.98</ele>
        <time>2024-07-11T08:49:29Z</time>
      </trkpt>
      <trkpt lat="44.70189" lon="-1.24096">
        <ele>4.46</ele>
        <time>2024-07-11T08:49:35Z</time>
      </trkpt>
      <trkpt lat="44.70189" lon="-1.24096">
        <ele>3.02</ele>
        <time>2024-07-11T08:49:37Z</time>
      </trkpt>
      <trkpt lat="44.7019" lon="-1.24096">
        <ele>3.98</ele>
        <time>2024-07-11T08:49:39Z</time>
      </trkpt>
      <trkpt lat="44.70193" lon="-1.24095">
        <ele>3.98</ele>
        <time>2024-07-11T08:49:42Z</time>
      </trkpt>
      <trkpt lat="44.70198" lon="-1.24094">
        <ele>3.02</ele>
        <time>2024-07-11T08:49:46Z</time>
      </trkpt>
      <trkpt lat="44.70206" lon="-1.24092">
        <ele>3.5</ele>
        <time>2024-07-11T08:49:51Z</time>
      </trkpt>
      <trkpt lat="44.70208" lon="-1.24091">
        <ele>2.54</ele>
        <time>2024-07-11T08:49:53Z</time>
      </trkpt>
      <trkpt lat="44.70217" lon="-1.24093">
        <ele>2.06</ele>
        <time>2024-07-11T08:50:01Z</time>
      </trkpt>
      <trkpt lat="44.70219" lon="-1.24093">
        <ele>3.98</ele>
        <time>2024-07-11T08:50:03Z</time>
      </trkpt>
      <trkpt lat="44.70227" lon="-1.24093">
        <ele>2.54</ele>
        <time>2024-07-11T08:50:13Z</time>
      </trkpt>
      <trkpt lat="44.70229" lon="-1.24093">
        <ele>5.42</ele>
        <time>2024-07-11T08:50:16Z</time>
      </trkpt>
      <trkpt lat="44.7024" lon="-1.2409">
        <ele>4.46</ele>
        <time>2024-07-11T08:50:27Z</time>
      </trkpt>
      <trkpt lat="44.70242" lon="-1.2409">
        <ele>5.91</ele>
        <time>2024-07-11T08:50:29Z</time>
      </trkpt>
      <trkpt lat="44.70249" lon="-1.24089">
        <ele>5.42</ele>
        <time>2024-07-11T08:50:35Z</time>
      </trkpt>
      <trkpt lat="44.70254" lon="-1.2409">
        <ele>5.91</ele>
        <time>2024-07-11T08:50:40Z</time>
      </trkpt>
      <trkpt lat="44.70261" lon="-1.24091">
        <ele>5.42</ele>
        <time>2024-07-11T08:50:47Z</time>
      </trkpt>
      <trkpt lat="44.70262" lon="-1.24091">
        <ele>6.87</ele>
        <time>2024-07-11T08:50:48Z</time>
      </trkpt>
      <trkpt lat="44.70265" lon="-1.24091">
        <ele>5.91</ele>
        <time>2024-07-11T08:50:52Z</time>
      </trkpt>
      <trkpt lat="44.70271" lon="-1.24091">
        <ele>9.27</ele>
        <time>2024-07-11T08:50:59Z</time>
      </trkpt>
      <trkpt lat="44.7028" lon="-1.2409">
        <ele>8.79</ele>
        <time>2024-07-11T08:51:07Z</time>
      </trkpt>
      <trkpt lat="44.70288" lon="-1.2409">
        <ele>10.71</ele>
        <time>2024-07-11T08:51:14Z</time>
      </trkpt>
      <trkpt lat="44.70298" lon="-1.24091">
        <ele>10.71</ele>
        <time>2024-07-11T08:51:24Z</time>
      </trkpt>
      <trkpt lat="44.70306" lon="-1.24094">
        <ele>9.75</ele>
        <time>2024-07-11T08:51:33Z</time>
      </trkpt>
      <trkpt lat="44.70313" lon="-1.24095">
        <ele>8.79</ele>
        <time>2024-07-11T08:51:42Z</time>
      </trkpt>
      <trkpt lat="44.70324" lon="-1.24094">
        <ele>8.79</ele>
        <time>2024-07-11T08:51:52Z</time>
      </trkpt>
      <trkpt lat="44.70332" lon="-1.24093">
        <ele>7.83</ele>
        <time>2024-07-11T08:52:00Z</time>
      </trkpt>
      <trkpt lat="44.70342" lon="-1.24091">
        <ele>6.87</ele>
        <time>2024-07-11T08:52:09Z</time>
      </trkpt>
      <trkpt lat="44.7035" lon="-1.24089">
        <ele>6.39</ele>
        <time>2024-07-11T08:52:14Z</time>
      </trkpt>
      <trkpt lat="44.70364" lon="-1.2409">
        <ele>4.94</ele>
        <time>2024-07-11T08:52:24Z</time>
      </trkpt>
      <trkpt lat="44.70371" lon="-1.24088">
        <ele>3.02</ele>
        <time>2024-07-11T08:52:32Z</time>
      </trkpt>
      <trkpt lat="44.70385" lon="-1.24085">
        <ele>1.1</ele>
        <time>2024-07-11T08:52:43Z</time>
      </trkpt>
      <trkpt lat="44.70393" lon="-1.24079">
        <ele>0.62</ele>
        <time>2024-07-11T08:52:49Z</time>
      </trkpt>
      <trkpt lat="44.70401" lon="-1.24074">
        <ele>-0.82</ele>
        <time>2024-07-11T08:52:56Z</time>
      </trkpt>
      <trkpt lat="44.70401" lon="-1.24074">
        <ele>-0.82</ele>
        <time>2024-07-11T08:52:57Z</time>
      </trkpt>
      <trkpt lat="44.70408" lon="-1.24069">
        <ele>-0.34</ele>
        <time>2024-07-11T08:53:02Z</time>
      </trkpt>
      <trkpt lat="44.70414" lon="-1.24066">
        <ele>-1.3</ele>
        <time>2024-07-11T08:53:09Z</time>
      </trkpt>
      <trkpt lat="44.70419" lon="-1.24064">
        <ele>-1.3</ele>
        <time>2024-07-11T08:53:15Z</time>
      </trkpt>
      <trkpt lat="44.70422" lon="-1.24061">
        <ele>-1.79</ele>
        <time>2024-07-11T08:53:19Z</time>
      </trkpt>
      <trkpt lat="44.70431" lon="-1.24053">
        <ele>0.14</ele>
        <time>2024-07-11T08:53:26Z</time>
      </trkpt>
      <trkpt lat="44.70436" lon="-1.2405">
        <ele>-1.3</ele>
        <time>2024-07-11T08:53:30Z</time>
      </trkpt>
      <trkpt lat="44.70439" lon="-1.24051">
        <ele>-9.48</ele>
        <time>2024-07-11T08:53:32Z</time>
      </trkpt>
      <trkpt lat="44.7044" lon="-1.24051">
        <ele>1.58</ele>
        <time>2024-07-11T08:53:33Z</time>
      </trkpt>
      <trkpt lat="44.70442" lon="-1.24051">
        <ele>-6.11</ele>
        <time>2024-07-11T08:53:35Z</time>
      </trkpt>
      <trkpt lat="44.70442" lon="-1.2405">
        <ele>-5.63</ele>
        <time>2024-07-11T08:53:36Z</time>
      </trkpt>
      <trkpt lat="44.70443" lon="-1.2405">
        <ele>0.62</ele>
        <time>2024-07-11T08:53:37Z</time>
      </trkpt>
      <trkpt lat="44.70444" lon="-1.24049">
        <ele>-7.55</ele>
        <time>2024-07-11T08:53:38Z</time>
      </trkpt>
      <trkpt lat="44.70446" lon="-1.24047">
        <ele>1.1</ele>
        <time>2024-07-11T08:53:40Z</time>
      </trkpt>
      <trkpt lat="44.70449" lon="-1.24046">
        <ele>-0.82</ele>
        <time>2024-07-11T08:53:44Z</time>
      </trkpt>
      <trkpt lat="44.70452" lon="-1.24044">
        <ele>-0.34</ele>
        <time>2024-07-11T08:53:48Z</time>
      </trkpt>
      <trkpt lat="44.70462" lon="-1.24033">
        <ele>1.58</ele>
        <time>2024-07-11T08:54:00Z</time>
      </trkpt>
      <trkpt lat="44.70467" lon="-1.24031">
        <ele>-0.82</ele>
        <time>2024-07-11T08:54:03Z</time>
      </trkpt>
      <trkpt lat="44.70478" lon="-1.24023">
        <ele>0.14</ele>
        <time>2024-07-11T08:54:11Z</time>
      </trkpt>
      <trkpt lat="44.70484" lon="-1.24015">
        <ele>1.1</ele>
        <time>2024-07-11T08:54:18Z</time>
      </trkpt>
      <trkpt lat="44.7049" lon="-1.24007">
        <ele>-0.34</ele>
        <time>2024-07-11T08:54:25Z</time>
      </trkpt>
      <trkpt lat="44.70491" lon="-1.24005">
        <ele>-0.34</ele>
        <time>2024-07-11T08:54:26Z</time>
      </trkpt>
      <trkpt lat="44.70492" lon="-1.24002">
        <ele>0.14</ele>
        <time>2024-07-11T08:54:28Z</time>
      </trkpt>
      <trkpt lat="44.70501" lon="-1.23995">
        <ele>-0.34</ele>
        <time>2024-07-11T08:54:35Z</time>
      </trkpt>
      <trkpt lat="44.70506" lon="-1.23988">
        <ele>-0.34</ele>
        <time>2024-07-11T08:54:41Z</time>
      </trkpt>
      <trkpt lat="44.70514" lon="-1.23979">
        <ele>-1.3</ele>
        <time>2024-07-11T08:54:48Z</time>
      </trkpt>
      <trkpt lat="44.70522" lon="-1.23974">
        <ele>-0.82</ele>
        <time>2024-07-11T08:54:54Z</time>
      </trkpt>
      <trkpt lat="44.70525" lon="-1.23968">
        <ele>-1.3</ele>
        <time>2024-07-11T08:54:58Z</time>
      </trkpt>
      <trkpt lat="44.70535" lon="-1.23957">
        <ele>-0.34</ele>
        <time>2024-07-11T08:55:09Z</time>
      </trkpt>
      <trkpt lat="44.70546" lon="-1.23947">
        <ele>-0.82</ele>
        <time>2024-07-11T08:55:18Z</time>
      </trkpt>
      <trkpt lat="44.70548" lon="-1.23945">
        <ele>-0.34</ele>
        <time>2024-07-11T08:55:20Z</time>
      </trkpt>
      <trkpt lat="44.70554" lon="-1.23939">
        <ele>-0.82</ele>
        <time>2024-07-11T08:55:27Z</time>
      </trkpt>
      <trkpt lat="44.7056" lon="-1.2393">
        <ele>-0.34</ele>
        <time>2024-07-11T08:55:34Z</time>
      </trkpt>
      <trkpt lat="44.70562" lon="-1.23927">
        <ele>-0.82</ele>
        <time>2024-07-11T08:55:37Z</time>
      </trkpt>
      <trkpt lat="44.70567" lon="-1.23921">
        <ele>-1.3</ele>
        <time>2024-07-11T08:55:43Z</time>
      </trkpt>
      <trkpt lat="44.70573" lon="-1.23915">
        <ele>-1.3</ele>
        <time>2024-07-11T08:55:49Z</time>
      </trkpt>
      <trkpt lat="44.70576" lon="-1.23911">
        <ele>-1.79</ele>
        <time>2024-07-11T08:55:53Z</time>
      </trkpt>
      <trkpt lat="44.70587" lon="-1.23898">
        <ele>0.14</ele>
        <time>2024-07-11T08:56:04Z</time>
      </trkpt>
      <trkpt lat="44.70588" lon="-1.23897">
        <ele>-0.34</ele>
        <time>2024-07-11T08:56:05Z</time>
      </trkpt>
      <trkpt lat="44.70591" lon="-1.23892">
        <ele>-0.34</ele>
        <time>2024-07-11T08:56:09Z</time>
      </trkpt>
      <trkpt lat="44.70594" lon="-1.23888">
        <ele>-1.3</ele>
        <time>2024-07-11T08:56:12Z</time>
      </trkpt>
      <trkpt lat="44.70605" lon="-1.23885">
        <ele>0.14</ele>
        <time>2024-07-11T08:56:20Z</time>
      </trkpt>
      <trkpt lat="44.70612" lon="-1.23874">
        <ele>-0.82</ele>
        <time>2024-07-11T08:56:28Z</time>
      </trkpt>
      <trkpt lat="44.70617" lon="-1.23867">
        <ele>-1.3</ele>
        <time>2024-07-11T08:56:34Z</time>
      </trkpt>
      <trkpt lat="44.70617" lon="-1.23863">
        <ele>-0.82</ele>
        <time>2024-07-11T08:56:36Z</time>
      </trkpt>
      <trkpt lat="44.70627" lon="-1.23853">
        <ele>-0.82</ele>
        <time>2024-07-11T08:56:44Z</time>
      </trkpt>
      <trkpt lat="44.70634" lon="-1.23847">
        <ele>-1.3</ele>
        <time>2024-07-11T08:56:51Z</time>
      </trkpt>
      <trkpt lat="44.70639" lon="-1.2384">
        <ele>0.62</ele>
        <time>2024-07-11T08:56:59Z</time>
      </trkpt>
      <trkpt lat="44.70647" lon="-1.23828">
        <ele>1.1</ele>
        <time>2024-07-11T08:57:10Z</time>
      </trkpt>
      <trkpt lat="44.70653" lon="-1.23816">
        <ele>2.54</ele>
        <time>2024-07-11T08:57:22Z</time>
      </trkpt>
      <trkpt lat="44.70659" lon="-1.23808">
        <ele>3.02</ele>
        <time>2024-07-11T08:57:33Z</time>
      </trkpt>
      <trkpt lat="44.70662" lon="-1.23804">
        <ele>3.02</ele>
        <time>2024-07-11T08:57:40Z</time>
      </trkpt>
      <trkpt lat="44.70669" lon="-1.23798">
        <ele>2.06</ele>
        <time>2024-07-11T08:57:46Z</time>
      </trkpt>
      <trkpt lat="44.70673" lon="-1.23795">
        <ele>1.1</ele>
        <time>2024-07-11T08:57:49Z</time>
      </trkpt>
      <trkpt lat="44.70685" lon="-1.23786">
        <ele>-0.82</ele>
        <time>2024-07-11T08:58:00Z</time>
      </trkpt>
      <trkpt lat="44.70695" lon="-1.23776">
        <ele>-1.3</ele>
        <time>2024-07-11T08:58:08Z</time>
      </trkpt>
      <trkpt lat="44.70703" lon="-1.23769">
        <ele>-2.27</ele>
        <time>2024-07-11T08:58:16Z</time>
      </trkpt>
      <trkpt lat="44.70709" lon="-1.23759">
        <ele>-1.79</ele>
        <time>2024-07-11T08:58:25Z</time>
      </trkpt>
      <trkpt lat="44.70716" lon="-1.23748">
        <ele>-0.82</ele>
        <time>2024-07-11T08:58:33Z</time>
      </trkpt>
      <trkpt lat="44.70721" lon="-1.2374">
        <ele>-1.79</ele>
        <time>2024-07-11T08:58:39Z</time>
      </trkpt>
      <trkpt lat="44.70722" lon="-1.2374">
        <ele>-1.3</ele>
        <time>2024-07-11T08:58:40Z</time>
      </trkpt>
      <trkpt lat="44.70731" lon="-1.2373">
        <ele>-1.3</ele>
        <time>2024-07-11T08:58:49Z</time>
      </trkpt>
      <trkpt lat="44.70736" lon="-1.23726">
        <ele>-2.27</ele>
        <time>2024-07-11T08:58:53Z</time>
      </trkpt>
      <trkpt lat="44.70737" lon="-1.23723">
        <ele>-2.27</ele>
        <time>2024-07-11T08:58:54Z</time>
      </trkpt>
      <trkpt lat="44.70754" lon="-1.23715">
        <ele>-1.79</ele>
        <time>2024-07-11T08:59:03Z</time>
      </trkpt>
      <trkpt lat="44.70755" lon="-1.23714">
        <ele>-7.07</ele>
        <time>2024-07-11T08:59:04Z</time>
      </trkpt>
      <trkpt lat="44.70757" lon="-1.23714">
        <ele>1.58</ele>
        <time>2024-07-11T08:59:05Z</time>
      </trkpt>
      <trkpt lat="44.70758" lon="-1.23713">
        <ele>-1.3</ele>
        <time>2024-07-11T08:59:06Z</time>
      </trkpt>
      <trkpt lat="44.70766" lon="-1.23708">
        <ele>-1.3</ele>
        <time>2024-07-11T08:59:13Z</time>
      </trkpt>
      <trkpt lat="44.70773" lon="-1.23707">
        <ele>-1.3</ele>
        <time>2024-07-11T08:59:19Z</time>
      </trkpt>
      <trkpt lat="44.70779" lon="-1.23693">
        <ele>-1.79</ele>
        <time>2024-07-11T08:59:29Z</time>
      </trkpt>
      <trkpt lat="44.70788" lon="-1.23681">
        <ele>1.1</ele>
        <time>2024-07-11T08:59:38Z</time>
      </trkpt>
      <trkpt lat="44.70793" lon="-1.23677">
        <ele>1.58</ele>
        <time>2024-07-11T08:59:45Z</time>
      </trkpt>
      <trkpt lat="44.70799" lon="-1.23668">
        <ele>0.62</ele>
        <time>2024-07-11T08:59:52Z</time>
      </trkpt>
      <trkpt lat="44.70802" lon="-1.23665">
        <ele>1.58</ele>
        <time>2024-07-11T08:59:54Z</time>
      </trkpt>
      <trkpt lat="44.70811" lon="-1.23658">
        <ele>2.06</ele>
        <time>2024-07-11T09:00:02Z</time>
      </trkpt>
      <trkpt lat="44.70819" lon="-1.23649">
        <ele>2.54</ele>
        <time>2024-07-11T09:00:12Z</time>
      </trkpt>
      <trkpt lat="44.70821" lon="-1.23645">
        <ele>3.02</ele>
        <time>2024-07-11T09:00:16Z</time>
      </trkpt>
      <trkpt lat="44.70831" lon="-1.23638">
        <ele>2.06</ele>
        <time>2024-07-11T09:00:25Z</time>
      </trkpt>
      <trkpt lat="44.70838" lon="-1.23632">
        <ele>4.46</ele>
        <time>2024-07-11T09:00:30Z</time>
      </trkpt>
      <trkpt lat="44.70843" lon="-1.23628">
        <ele>2.54</ele>
        <time>2024-07-11T09:00:35Z</time>
      </trkpt>
      <trkpt lat="44.70853" lon="-1.23619">
        <ele>3.98</ele>
        <time>2024-07-11T09:00:44Z</time>
      </trkpt>
      <trkpt lat="44.7086" lon="-1.23612">
        <ele>4.94</ele>
        <time>2024-07-11T09:00:51Z</time>
      </trkpt>
      <trkpt lat="44.70864" lon="-1.23605">
        <ele>3.5</ele>
        <time>2024-07-11T09:00:57Z</time>
      </trkpt>
      <trkpt lat="44.70871" lon="-1.23593">
        <ele>4.94</ele>
        <time>2024-07-11T09:01:06Z</time>
      </trkpt>
      <trkpt lat="44.70879" lon="-1.23581">
        <ele>3.5</ele>
        <time>2024-07-11T09:01:16Z</time>
      </trkpt>
      <trkpt lat="44.70888" lon="-1.23573">
        <ele>4.46</ele>
        <time>2024-07-11T09:01:25Z</time>
      </trkpt>
      <trkpt lat="44.70893" lon="-1.23567">
        <ele>3.5</ele>
        <time>2024-07-11T09:01:31Z</time>
      </trkpt>
      <trkpt lat="44.70903" lon="-1.23557">
        <ele>3.5</ele>
        <time>2024-07-11T09:01:41Z</time>
      </trkpt>
      <trkpt lat="44.70907" lon="-1.23552">
        <ele>2.06</ele>
        <time>2024-07-11T09:01:47Z</time>
      </trkpt>
      <trkpt lat="44.7091" lon="-1.23548">
        <ele>0.62</ele>
        <time>2024-07-11T09:01:50Z</time>
      </trkpt>
      <trkpt lat="44.70921" lon="-1.23537">
        <ele>-1.3</ele>
        <time>2024-07-11T09:02:00Z</time>
      </trkpt>
      <trkpt lat="44.70931" lon="-1.2353">
        <ele>-1.79</ele>
        <time>2024-07-11T09:02:07Z</time>
      </trkpt>
      <trkpt lat="44.70937" lon="-1.23518">
        <ele>-1.79</ele>
        <time>2024-07-11T09:02:16Z</time>
      </trkpt>
      <trkpt lat="44.70945" lon="-1.23508">
        <ele>-1.3</ele>
        <time>2024-07-11T09:02:24Z</time>
      </trkpt>
      <trkpt lat="44.70953" lon="-1.23502">
        <ele>-1.79</ele>
        <time>2024-07-11T09:02:32Z</time>
      </trkpt>
      <trkpt lat="44.70961" lon="-1.23493">
        <ele>-1.3</ele>
        <time>2024-07-11T09:02:40Z</time>
      </trkpt>
      <trkpt lat="44.70965" lon="-1.23487">
        <ele>-5.63</ele>
        <time>2024-07-11T09:02:44Z</time>
      </trkpt>
      <trkpt lat="44.70966" lon="-1.23485">
        <ele>-3.23</ele>
        <time>2024-07-11T09:02:45Z</time>
      </trkpt>
      <trkpt lat="44.70967" lon="-1.23485">
        <ele>0.62</ele>
        <time>2024-07-11T09:02:46Z</time>
      </trkpt>
      <trkpt lat="44.70968" lon="-1.23484">
        <ele>-1.79</ele>
        <time>2024-07-11T09:02:47Z</time>
      </trkpt>
      <trkpt lat="44.70971" lon="-1.23483">
        <ele>-3.71</ele>
        <time>2024-07-11T09:02:49Z</time>
      </trkpt>
      <trkpt lat="44.70978" lon="-1.23481">
        <ele>-6.11</ele>
        <time>2024-07-11T09:02:54Z</time>
      </trkpt>
      <trkpt lat="44.70978" lon="-1.2348">
        <ele>1.1</ele>
        <time>2024-07-11T09:02:55Z</time>
      </trkpt>
      <trkpt lat="44.70979" lon="-1.23478">
        <ele>-1.79</ele>
        <time>2024-07-11T09:02:56Z</time>
      </trkpt>
      <trkpt lat="44.70983" lon="-1.23474">
        <ele>-1.79</ele>
        <time>2024-07-11T09:03:00Z</time>
      </trkpt>
      <trkpt lat="44.70986" lon="-1.23468">
        <ele>-3.23</ele>
        <time>2024-07-11T09:03:05Z</time>
      </trkpt>
      <trkpt lat="44.7099" lon="-1.23463">
        <ele>-1.3</ele>
        <time>2024-07-11T09:03:10Z</time>
      </trkpt>
      <trkpt lat="44.70993" lon="-1.2346">
        <ele>-4.67</ele>
        <time>2024-07-11T09:03:13Z</time>
      </trkpt>
      <trkpt lat="44.70994" lon="-1.23459">
        <ele>-0.82</ele>
        <time>2024-07-11T09:03:14Z</time>
      </trkpt>
      <trkpt lat="44.70998" lon="-1.23456">
        <ele>-5.63</ele>
        <time>2024-07-11T09:03:17Z</time>
      </trkpt>
      <trkpt lat="44.70999" lon="-1.23456">
        <ele>-2.75</ele>
        <time>2024-07-11T09:03:18Z</time>
      </trkpt>
      <trkpt lat="44.71001" lon="-1.23454">
        <ele>-1.3</ele>
        <time>2024-07-11T09:03:20Z</time>
      </trkpt>
      <trkpt lat="44.71004" lon="-1.23452">
        <ele>-2.27</ele>
        <time>2024-07-11T09:03:22Z</time>
      </trkpt>
      <trkpt lat="44.71013" lon="-1.23439">
        <ele>-1.79</ele>
        <time>2024-07-11T09:03:29Z</time>
      </trkpt>
      <trkpt lat="44.71015" lon="-1.23436">
        <ele>-1.79</ele>
        <time>2024-07-11T09:03:31Z</time>
      </trkpt>
      <trkpt lat="44.7102" lon="-1.23431">
        <ele>-1.79</ele>
        <time>2024-07-11T09:03:38Z</time>
      </trkpt>
      <trkpt lat="44.71022" lon="-1.23428">
        <ele>-1.79</ele>
        <time>2024-07-11T09:03:45Z</time>
      </trkpt>
      <trkpt lat="44.71022" lon="-1.23423">
        <ele>-2.27</ele>
        <time>2024-07-11T09:03:50Z</time>
      </trkpt>
      <trkpt lat="44.71028" lon="-1.23414">
        <ele>-2.27</ele>
        <time>2024-07-11T09:03:55Z</time>
      </trkpt>
      <trkpt lat="44.71039" lon="-1.23407">
        <ele>-1.79</ele>
        <time>2024-07-11T09:03:58Z</time>
      </trkpt>
      <trkpt lat="44.71042" lon="-1.23402">
        <ele>-2.27</ele>
        <time>2024-07-11T09:04:06Z</time>
      </trkpt>
      <trkpt lat="44.71043" lon="-1.23401">
        <ele>-2.27</ele>
        <time>2024-07-11T09:04:07Z</time>
      </trkpt>
      <trkpt lat="44.71052" lon="-1.23393">
        <ele>-1.79</ele>
        <time>2024-07-11T09:04:13Z</time>
      </trkpt>
      <trkpt lat="44.71066" lon="-1.23381">
        <ele>-2.27</ele>
        <time>2024-07-11T09:04:20Z</time>
      </trkpt>
      <trkpt lat="44.71067" lon="-1.23379">
        <ele>-1.79</ele>
        <time>2024-07-11T09:04:24Z</time>
      </trkpt>
      <trkpt lat="44.71072" lon="-1.23373">
        <ele>-1.79</ele>
        <time>2024-07-11T09:04:30Z</time>
      </trkpt>
      <trkpt lat="44.71074" lon="-1.2337">
        <ele>-1.79</ele>
        <time>2024-07-11T09:04:33Z</time>
      </trkpt>
      <trkpt lat="44.71077" lon="-1.23367">
        <ele>-1.3</ele>
        <time>2024-07-11T09:04:35Z</time>
      </trkpt>
      <trkpt lat="44.71084" lon="-1.23363">
        <ele>-8.03</ele>
        <time>2024-07-11T09:04:40Z</time>
      </trkpt>
      <trkpt lat="44.71086" lon="-1.23362">
        <ele>0.14</ele>
        <time>2024-07-11T09:04:41Z</time>
      </trkpt>
      <trkpt lat="44.71087" lon="-1.2336">
        <ele>-3.23</ele>
        <time>2024-07-11T09:04:43Z</time>
      </trkpt>
      <trkpt lat="44.71098" lon="-1.23352">
        <ele>-1.79</ele>
        <time>2024-07-11T09:04:50Z</time>
      </trkpt>
      <trkpt lat="44.711" lon="-1.23348">
        <ele>-1.79</ele>
        <time>2024-07-11T09:04:56Z</time>
      </trkpt>
      <trkpt lat="44.71101" lon="-1.23347">
        <ele>-1.3</ele>
        <time>2024-07-11T09:05:03Z</time>
      </trkpt>
      <trkpt lat="44.71103" lon="-1.23342">
        <ele>-1.3</ele>
        <time>2024-07-11T09:05:09Z</time>
      </trkpt>
      <trkpt lat="44.71114" lon="-1.23333">
        <ele>-1.79</ele>
        <time>2024-07-11T09:05:13Z</time>
      </trkpt>
      <trkpt lat="44.71123" lon="-1.23324">
        <ele>-1.79</ele>
        <time>2024-07-11T09:05:17Z</time>
      </trkpt>
      <trkpt lat="44.71137" lon="-1.23309">
        <ele>-2.27</ele>
        <time>2024-07-11T09:05:24Z</time>
      </trkpt>
      <trkpt lat="44.71139" lon="-1.23306">
        <ele>-2.27</ele>
        <time>2024-07-11T09:05:28Z</time>
      </trkpt>
      <trkpt lat="44.7114" lon="-1.23304">
        <ele>-1.79</ele>
        <time>2024-07-11T09:05:31Z</time>
      </trkpt>
      <trkpt lat="44.71143" lon="-1.23299">
        <ele>-1.79</ele>
        <time>2024-07-11T09:05:37Z</time>
      </trkpt>
      <trkpt lat="44.71145" lon="-1.23295">
        <ele>-1.3</ele>
        <time>2024-07-11T09:05:44Z</time>
      </trkpt>
      <trkpt lat="44.71145" lon="-1.23294">
        <ele>-1.79</ele>
        <time>2024-07-11T09:05:45Z</time>
      </trkpt>
      <trkpt lat="44.71144" lon="-1.2329">
        <ele>-1.79</ele>
        <time>2024-07-11T09:05:50Z</time>
      </trkpt>
      <trkpt lat="44.71144" lon="-1.2329">
        <ele>-1.3</ele>
        <time>2024-07-11T09:05:51Z</time>
      </trkpt>
      <trkpt lat="44.71147" lon="-1.23283">
        <ele>-2.27</ele>
        <time>2024-07-11T09:05:57Z</time>
      </trkpt>
      <trkpt lat="44.71151" lon="-1.23282">
        <ele>-1.79</ele>
        <time>2024-07-11T09:06:00Z</time>
      </trkpt>
      <trkpt lat="44.71171" lon="-1.23277">
        <ele>-1.79</ele>
        <time>2024-07-11T09:06:07Z</time>
      </trkpt>
      <trkpt lat="44.71185" lon="-1.23273">
        <ele>-1.79</ele>
        <time>2024-07-11T09:06:12Z</time>
      </trkpt>
      <trkpt lat="44.71189" lon="-1.2327">
        <ele>-1.79</ele>
        <time>2024-07-11T09:06:16Z</time>
      </trkpt>
      <trkpt lat="44.71192" lon="-1.23269">
        <ele>-1.3</ele>
        <time>2024-07-11T09:06:21Z</time>
      </trkpt>
      <trkpt lat="44.71196" lon="-1.2327">
        <ele>-1.3</ele>
        <time>2024-07-11T09:06:25Z</time>
      </trkpt>
      <trkpt lat="44.71207" lon="-1.23268">
        <ele>-1.3</ele>
        <time>2024-07-11T09:06:28Z</time>
      </trkpt>
      <trkpt lat="44.71221" lon="-1.23266">
        <ele>-0.82</ele>
        <time>2024-07-11T09:06:35Z</time>
      </trkpt>
      <trkpt lat="44.71222" lon="-1.23265">
        <ele>-1.3</ele>
        <time>2024-07-11T09:06:36Z</time>
      </trkpt>
      <trkpt lat="44.71229" lon="-1.23265">
        <ele>-1.3</ele>
        <time>2024-07-11T09:06:41Z</time>
      </trkpt>
      <trkpt lat="44.71237" lon="-1.23264">
        <ele>-1.3</ele>
        <time>2024-07-11T09:06:45Z</time>
      </trkpt>
      <trkpt lat="44.71256" lon="-1.23262">
        <ele>-1.3</ele>
        <time>2024-07-11T09:06:53Z</time>
      </trkpt>
      <trkpt lat="44.71267" lon="-1.2326">
        <ele>-1.79</ele>
        <time>2024-07-11T09:06:59Z</time>
      </trkpt>
      <trkpt lat="44.71268" lon="-1.23257">
        <ele>-1.3</ele>
        <time>2024-07-11T09:07:07Z</time>
      </trkpt>
      <trkpt lat="44.71269" lon="-1.23257">
        <ele>-0.82</ele>
        <time>2024-07-11T09:07:14Z</time>
      </trkpt>
      <trkpt lat="44.71274" lon="-1.23256">
        <ele>-0.82</ele>
        <time>2024-07-11T09:07:17Z</time>
      </trkpt>
      <trkpt lat="44.71277" lon="-1.23253">
        <ele>-1.3</ele>
        <time>2024-07-11T09:07:21Z</time>
      </trkpt>
      <trkpt lat="44.71298" lon="-1.23249">
        <ele>-0.34</ele>
        <time>2024-07-11T09:07:32Z</time>
      </trkpt>
      <trkpt lat="44.71301" lon="-1.23249">
        <ele>0.62</ele>
        <time>2024-07-11T09:07:34Z</time>
      </trkpt>
      <trkpt lat="44.71302" lon="-1.23249">
        <ele>-6.59</ele>
        <time>2024-07-11T09:07:35Z</time>
      </trkpt>
      <trkpt lat="44.71304" lon="-1.23248">
        <ele>0.62</ele>
        <time>2024-07-11T09:07:36Z</time>
      </trkpt>
      <trkpt lat="44.71316" lon="-1.23249">
        <ele>2.54</ele>
        <time>2024-07-11T09:07:45Z</time>
      </trkpt>
      <trkpt lat="44.71318" lon="-1.23249">
        <ele>1.58</ele>
        <time>2024-07-11T09:07:46Z</time>
      </trkpt>
      <trkpt lat="44.71322" lon="-1.23248">
        <ele>-1.79</ele>
        <time>2024-07-11T09:07:49Z</time>
      </trkpt>
      <trkpt lat="44.71323" lon="-1.23248">
        <ele>0.62</ele>
        <time>2024-07-11T09:07:50Z</time>
      </trkpt>
      <trkpt lat="44.71335" lon="-1.23245">
        <ele>1.1</ele>
        <time>2024-07-11T09:07:59Z</time>
      </trkpt>
      <trkpt lat="44.71341" lon="-1.23243">
        <ele>0.62</ele>
        <time>2024-07-11T09:08:04Z</time>
      </trkpt>
      <trkpt lat="44.71352" lon="-1.23243">
        <ele>-0.82</ele>
        <time>2024-07-11T09:08:10Z</time>
      </trkpt>
      <trkpt lat="44.71369" lon="-1.2324">
        <ele>-0.34</ele>
        <time>2024-07-11T09:08:21Z</time>
      </trkpt>
      <trkpt lat="44.71382" lon="-1.23236">
        <ele>-1.3</ele>
        <time>2024-07-11T09:08:31Z</time>
      </trkpt>
      <trkpt lat="44.71383" lon="-1.23236">
        <ele>-0.82</ele>
        <time>2024-07-11T09:08:32Z</time>
      </trkpt>
      <trkpt lat="44.71384" lon="-1.23235">
        <ele>-0.34</ele>
        <time>2024-07-11T09:08:42Z</time>
      </trkpt>
      <trkpt lat="44.71384" lon="-1.23235">
        <ele>-0.34</ele>
        <time>2024-07-11T09:08:55Z</time>
      </trkpt>
      <trkpt lat="44.71384" lon="-1.23234">
        <ele>-0.34</ele>
        <time>2024-07-11T09:09:09Z</time>
      </trkpt>
      <trkpt lat="44.71382" lon="-1.23235">
        <ele>-0.82</ele>
        <time>2024-07-11T09:09:19Z</time>
      </trkpt>
      <trkpt lat="44.71381" lon="-1.23235">
        <ele>-0.34</ele>
        <time>2024-07-11T09:09:32Z</time>
      </trkpt>
      <trkpt lat="44.71384" lon="-1.23233">
        <ele>0.14</ele>
        <time>2024-07-11T09:09:47Z</time>
      </trkpt>
      <trkpt lat="44.71381" lon="-1.23232">
        <ele>0.62</ele>
        <time>2024-07-11T09:09:57Z</time>
      </trkpt>
      <trkpt lat="44.71383" lon="-1.23226">
        <ele>0.14</ele>
        <time>2024-07-11T09:10:06Z</time>
      </trkpt>
      <trkpt lat="44.71383" lon="-1.23204">
        <ele>1.58</ele>
        <time>2024-07-11T09:10:16Z</time>
      </trkpt>
      <trkpt lat="44.71384" lon="-1.2319">
        <ele>2.54</ele>
        <time>2024-07-11T09:10:26Z</time>
      </trkpt>
      <trkpt lat="44.71385" lon="-1.2318">
        <ele>2.06</ele>
        <time>2024-07-11T09:10:34Z</time>
      </trkpt>
      <trkpt lat="44.71384" lon="-1.2317">
        <ele>2.06</ele>
        <time>2024-07-11T09:10:39Z</time>
      </trkpt>
      <trkpt lat="44.71383" lon="-1.23154">
        <ele>2.54</ele>
        <time>2024-07-11T09:10:48Z</time>
      </trkpt>
      <trkpt lat="44.71383" lon="-1.23134">
        <ele>3.98</ele>
        <time>2024-07-11T09:10:58Z</time>
      </trkpt>
      <trkpt lat="44.71385" lon="-1.23121">
        <ele>6.39</ele>
        <time>2024-07-11T09:11:09Z</time>
      </trkpt>
      <trkpt lat="44.71386" lon="-1.23115">
        <ele>8.31</ele>
        <time>2024-07-11T09:11:21Z</time>
      </trkpt>
      <trkpt lat="44.71386" lon="-1.23097">
        <ele>9.75</ele>
        <time>2024-07-11T09:11:31Z</time>
      </trkpt>
      <trkpt lat="44.71387" lon="-1.2308">
        <ele>9.27</ele>
        <time>2024-07-11T09:11:42Z</time>
      </trkpt>
      <trkpt lat="44.71387" lon="-1.23076">
        <ele>13.12</ele>
        <time>2024-07-11T09:11:46Z</time>
      </trkpt>
      <trkpt lat="44.71388" lon="-1.23067">
        <ele>11.67</ele>
        <time>2024-07-11T09:11:55Z</time>
      </trkpt>
      <trkpt lat="44.71393" lon="-1.23045">
        <ele>12.63</ele>
        <time>2024-07-11T09:12:06Z</time>
      </trkpt>
      <trkpt lat="44.71398" lon="-1.2302">
        <ele>13.6</ele>
        <time>2024-07-11T09:12:19Z</time>
      </trkpt>
      <trkpt lat="44.71398" lon="-1.23011">
        <ele>12.63</ele>
        <time>2024-07-11T09:12:29Z</time>
      </trkpt>
      <trkpt lat="44.71399" lon="-1.23006">
        <ele>13.6</ele>
        <time>2024-07-11T09:12:35Z</time>
      </trkpt>
      <trkpt lat="44.71399" lon="-1.22989">
        <ele>12.63</ele>
        <time>2024-07-11T09:12:45Z</time>
      </trkpt>
      <trkpt lat="44.71399" lon="-1.22956">
        <ele>14.56</ele>
        <time>2024-07-11T09:12:56Z</time>
      </trkpt>
      <trkpt lat="44.71401" lon="-1.22947">
        <ele>15.04</ele>
        <time>2024-07-11T09:13:02Z</time>
      </trkpt>
      <trkpt lat="44.71403" lon="-1.22944">
        <ele>14.08</ele>
        <time>2024-07-11T09:13:05Z</time>
      </trkpt>
      <trkpt lat="44.71403" lon="-1.22942">
        <ele>14.08</ele>
        <time>2024-07-11T09:13:07Z</time>
      </trkpt>
      <trkpt lat="44.71403" lon="-1.2294">
        <ele>10.23</ele>
        <time>2024-07-11T09:13:08Z</time>
      </trkpt>
      <trkpt lat="44.71403" lon="-1.22939">
        <ele>15.04</ele>
        <time>2024-07-11T09:13:09Z</time>
      </trkpt>
      <trkpt lat="44.7141" lon="-1.22932">
        <ele>12.63</ele>
        <time>2024-07-11T09:13:17Z</time>
      </trkpt>
      <trkpt lat="44.71417" lon="-1.22922">
        <ele>12.63</ele>
        <time>2024-07-11T09:13:26Z</time>
      </trkpt>
      <trkpt lat="44.7142" lon="-1.22911">
        <ele>13.12</ele>
        <time>2024-07-11T09:13:33Z</time>
      </trkpt>
      <trkpt lat="44.71424" lon="-1.22903">
        <ele>12.63</ele>
        <time>2024-07-11T09:13:39Z</time>
      </trkpt>
      <trkpt lat="44.71427" lon="-1.22893">
        <ele>12.15</ele>
        <time>2024-07-11T09:13:45Z</time>
      </trkpt>
      <trkpt lat="44.71423" lon="-1.22888">
        <ele>12.63</ele>
        <time>2024-07-11T09:13:49Z</time>
      </trkpt>
      <trkpt lat="44.7142" lon="-1.22879">
        <ele>12.63</ele>
        <time>2024-07-11T09:13:55Z</time>
      </trkpt>
      <trkpt lat="44.7142" lon="-1.22877">
        <ele>13.12</ele>
        <time>2024-07-11T09:13:56Z</time>
      </trkpt>
      <trkpt lat="44.71412" lon="-1.22862">
        <ele>13.12</ele>
        <time>2024-07-11T09:14:05Z</time>
      </trkpt>
      <trkpt lat="44.71411" lon="-1.22858">
        <ele>17.92</ele>
        <time>2024-07-11T09:14:07Z</time>
      </trkpt>
      <trkpt lat="44.7141" lon="-1.22857">
        <ele>13.12</ele>
        <time>2024-07-11T09:14:08Z</time>
      </trkpt>
      <trkpt lat="44.71405" lon="-1.22841">
        <ele>12.63</ele>
        <time>2024-07-11T09:14:18Z</time>
      </trkpt>
      <trkpt lat="44.71404" lon="-1.22837">
        <ele>14.08</ele>
        <time>2024-07-11T09:14:21Z</time>
      </trkpt>
      <trkpt lat="44.71404" lon="-1.22825">
        <ele>12.63</ele>
        <time>2024-07-11T09:14:27Z</time>
      </trkpt>
      <trkpt lat="44.71404" lon="-1.22822">
        <ele>14.56</ele>
        <time>2024-07-11T09:14:31Z</time>
      </trkpt>
      <trkpt lat="44.71402" lon="-1.22817">
        <ele>13.12</ele>
        <time>2024-07-11T09:14:34Z</time>
      </trkpt>
      <trkpt lat="44.71397" lon="-1.22808">
        <ele>12.63</ele>
        <time>2024-07-11T09:14:39Z</time>
      </trkpt>
      <trkpt lat="44.71384" lon="-1.22793">
        <ele>12.63</ele>
        <time>2024-07-11T09:14:51Z</time>
      </trkpt>
      <trkpt lat="44.71383" lon="-1.2278">
        <ele>13.6</ele>
        <time>2024-07-11T09:15:00Z</time>
      </trkpt>
      <trkpt lat="44.71385" lon="-1.22777">
        <ele>13.12</ele>
        <time>2024-07-11T09:15:02Z</time>
      </trkpt>
      <trkpt lat="44.71389" lon="-1.22764">
        <ele>13.12</ele>
        <time>2024-07-11T09:15:11Z</time>
      </trkpt>
      <trkpt lat="44.71399" lon="-1.22752">
        <ele>11.67</ele>
        <time>2024-07-11T09:15:21Z</time>
      </trkpt>
      <trkpt lat="44.71398" lon="-1.22748">
        <ele>11.67</ele>
        <time>2024-07-11T09:15:30Z</time>
      </trkpt>
      <trkpt lat="44.71395" lon="-1.2274">
        <ele>10.71</ele>
        <time>2024-07-11T09:15:33Z</time>
      </trkpt>
      <trkpt lat="44.71387" lon="-1.22724">
        <ele>10.23</ele>
        <time>2024-07-11T09:15:43Z</time>
      </trkpt>
      <trkpt lat="44.71372" lon="-1.22719">
        <ele>7.83</ele>
        <time>2024-07-11T09:15:58Z</time>
      </trkpt>
      <trkpt lat="44.71356" lon="-1.22709">
        <ele>6.87</ele>
        <time>2024-07-11T09:16:09Z</time>
      </trkpt>
      <trkpt lat="44.71337" lon="-1.22707">
        <ele>4.94</ele>
        <time>2024-07-11T09:16:20Z</time>
      </trkpt>
      <trkpt lat="44.71322" lon="-1.22708">
        <ele>2.54</ele>
        <time>2024-07-11T09:16:31Z</time>
      </trkpt>
      <trkpt lat="44.71314" lon="-1.22705">
        <ele>2.06</ele>
        <time>2024-07-11T09:16:36Z</time>
      </trkpt>
      <trkpt lat="44.71298" lon="-1.227">
        <ele>1.58</ele>
        <time>2024-07-11T09:16:48Z</time>
      </trkpt>
      <trkpt lat="44.71286" lon="-1.22691">
        <ele>1.58</ele>
        <time>2024-07-11T09:16:59Z</time>
      </trkpt>
      <trkpt lat="44.71283" lon="-1.22675">
        <ele>-0.34</ele>
        <time>2024-07-11T09:17:09Z</time>
      </trkpt>
      <trkpt lat="44.71275" lon="-1.22663">
        <ele>-0.34</ele>
        <time>2024-07-11T09:17:18Z</time>
      </trkpt>
      <trkpt lat="44.71276" lon="-1.22659">
        <ele>-0.82</ele>
        <time>2024-07-11T09:17:23Z</time>
      </trkpt>
      <trkpt lat="44.71282" lon="-1.22652">
        <ele>0.14</ele>
        <time>2024-07-11T09:17:29Z</time>
      </trkpt>
      <trkpt lat="44.71287" lon="-1.22635">
        <ele>-0.82</ele>
        <time>2024-07-11T09:17:37Z</time>
      </trkpt>
      <trkpt lat="44.71287" lon="-1.22633">
        <ele>-0.82</ele>
        <time>2024-07-11T09:17:38Z</time>
      </trkpt>
      <trkpt lat="44.71291" lon="-1.22619">
        <ele>-1.3</ele>
        <time>2024-07-11T09:17:47Z</time>
      </trkpt>
      <trkpt lat="44.71294" lon="-1.22602">
        <ele>-0.82</ele>
        <time>2024-07-11T09:17:55Z</time>
      </trkpt>
      <trkpt lat="44.71297" lon="-1.22596">
        <ele>-0.34</ele>
        <time>2024-07-11T09:17:59Z</time>
      </trkpt>
      <trkpt lat="44.71298" lon="-1.22587">
        <ele>0.62</ele>
        <time>2024-07-11T09:18:05Z</time>
      </trkpt>
      <trkpt lat="44.713" lon="-1.22569">
        <ele>-0.34</ele>
        <time>2024-07-11T09:18:15Z</time>
      </trkpt>
      <trkpt lat="44.71305" lon="-1.22549">
        <ele>1.1</ele>
        <time>2024-07-11T09:18:27Z</time>
      </trkpt>
      <trkpt lat="44.71307" lon="-1.22544">
        <ele>-0.34</ele>
        <time>2024-07-11T09:18:30Z</time>
      </trkpt>
      <trkpt lat="44.7131" lon="-1.22529">
        <ele>-0.82</ele>
        <time>2024-07-11T09:18:40Z</time>
      </trkpt>
      <trkpt lat="44.71314" lon="-1.22516">
        <ele>-1.3</ele>
        <time>2024-07-11T09:18:48Z</time>
      </trkpt>
      <trkpt lat="44.71315" lon="-1.22503">
        <ele>-0.34</ele>
        <time>2024-07-11T09:18:54Z</time>
      </trkpt>
      <trkpt lat="44.71323" lon="-1.22485">
        <ele>-1.3</ele>
        <time>2024-07-11T09:19:04Z</time>
      </trkpt>
      <trkpt lat="44.71324" lon="-1.22469">
        <ele>-1.3</ele>
        <time>2024-07-11T09:19:13Z</time>
      </trkpt>
      <trkpt lat="44.71326" lon="-1.22463">
        <ele>-0.34</ele>
        <time>2024-07-11T09:19:16Z</time>
      </trkpt>
      <trkpt lat="44.71328" lon="-1.22446">
        <ele>0.14</ele>
        <time>2024-07-11T09:19:25Z</time>
      </trkpt>
      <trkpt lat="44.7133" lon="-1.22428">
        <ele>-0.34</ele>
        <time>2024-07-11T09:19:34Z</time>
      </trkpt>
      <trkpt lat="44.71333" lon="-1.22418">
        <ele>-0.34</ele>
        <time>2024-07-11T09:19:40Z</time>
      </trkpt>
      <trkpt lat="44.71341" lon="-1.22408">
        <ele>-0.82</ele>
        <time>2024-07-11T09:19:48Z</time>
      </trkpt>
      <trkpt lat="44.71342" lon="-1.22395">
        <ele>-0.82</ele>
        <time>2024-07-11T09:19:56Z</time>
      </trkpt>
      <trkpt lat="44.71344" lon="-1.22369">
        <ele>-0.34</ele>
        <time>2024-07-11T09:20:06Z</time>
      </trkpt>
      <trkpt lat="44.71343" lon="-1.22354">
        <ele>-1.79</ele>
        <time>2024-07-11T09:20:16Z</time>
      </trkpt>
      <trkpt lat="44.71343" lon="-1.22348">
        <ele>-0.82</ele>
        <time>2024-07-11T09:20:20Z</time>
      </trkpt>
      <trkpt lat="44.71338" lon="-1.22334">
        <ele>-0.82</ele>
        <time>2024-07-11T09:20:27Z</time>
      </trkpt>
      <trkpt lat="44.71334" lon="-1.22319">
        <ele>-1.79</ele>
        <time>2024-07-11T09:20:35Z</time>
      </trkpt>
      <trkpt lat="44.71336" lon="-1.223">
        <ele>-0.82</ele>
        <time>2024-07-11T09:20:46Z</time>
      </trkpt>
      <trkpt lat="44.71338" lon="-1.22281">
        <ele>-1.79</ele>
        <time>2024-07-11T09:20:57Z</time>
      </trkpt>
      <trkpt lat="44.71341" lon="-1.2226">
        <ele>-2.27</ele>
        <time>2024-07-11T09:21:07Z</time>
      </trkpt>
      <trkpt lat="44.7134" lon="-1.22251">
        <ele>-0.34</ele>
        <time>2024-07-11T09:21:11Z</time>
      </trkpt>
      <trkpt lat="44.71339" lon="-1.22239">
        <ele>-0.82</ele>
        <time>2024-07-11T09:21:17Z</time>
      </trkpt>
      <trkpt lat="44.71333" lon="-1.22218">
        <ele>-2.27</ele>
        <time>2024-07-11T09:21:28Z</time>
      </trkpt>
      <trkpt lat="44.71325" lon="-1.22207">
        <ele>-1.3</ele>
        <time>2024-07-11T09:21:37Z</time>
      </trkpt>
      <trkpt lat="44.7132" lon="-1.222">
        <ele>-0.82</ele>
        <time>2024-07-11T09:21:42Z</time>
      </trkpt>
      <trkpt lat="44.71317" lon="-1.2219">
        <ele>-1.3</ele>
        <time>2024-07-11T09:21:48Z</time>
      </trkpt>
      <trkpt lat="44.71308" lon="-1.22178">
        <ele>-1.3</ele>
        <time>2024-07-11T09:21:57Z</time>
      </trkpt>
      <trkpt lat="44.71307" lon="-1.22179">
        <ele>-0.82</ele>
        <time>2024-07-11T09:22:09Z</time>
      </trkpt>
      <trkpt lat="44.71302" lon="-1.22173">
        <ele>-1.3</ele>
        <time>2024-07-11T09:22:19Z</time>
      </trkpt>
      <trkpt lat="44.71296" lon="-1.22167">
        <ele>-0.34</ele>
        <time>2024-07-11T09:22:25Z</time>
      </trkpt>
      <trkpt lat="44.71289" lon="-1.22155">
        <ele>-2.27</ele>
        <time>2024-07-11T09:22:34Z</time>
      </trkpt>
      <trkpt lat="44.71288" lon="-1.22151">
        <ele>-0.82</ele>
        <time>2024-07-11T09:22:36Z</time>
      </trkpt>
      <trkpt lat="44.71283" lon="-1.22144">
        <ele>-1.3</ele>
        <time>2024-07-11T09:22:41Z</time>
      </trkpt>
      <trkpt lat="44.71273" lon="-1.2213">
        <ele>0.14</ele>
        <time>2024-07-11T09:22:50Z</time>
      </trkpt>
      <trkpt lat="44.71268" lon="-1.22124">
        <ele>-0.82</ele>
        <time>2024-07-11T09:22:55Z</time>
      </trkpt>
      <trkpt lat="44.71257" lon="-1.22107">
        <ele>0.14</ele>
        <time>2024-07-11T09:23:08Z</time>
      </trkpt>
      <trkpt lat="44.71252" lon="-1.22094">
        <ele>0.62</ele>
        <time>2024-07-11T09:23:18Z</time>
      </trkpt>
      <trkpt lat="44.7125" lon="-1.22091">
        <ele>-0.82</ele>
        <time>2024-07-11T09:23:20Z</time>
      </trkpt>
      <trkpt lat="44.71238" lon="-1.22078">
        <ele>0.14</ele>
        <time>2024-07-11T09:23:30Z</time>
      </trkpt>
      <trkpt lat="44.71237" lon="-1.22074">
        <ele>0.62</ele>
        <time>2024-07-11T09:23:32Z</time>
      </trkpt>
      <trkpt lat="44.71232" lon="-1.22064">
        <ele>-0.34</ele>
        <time>2024-07-11T09:23:38Z</time>
      </trkpt>
      <trkpt lat="44.71227" lon="-1.22057">
        <ele>-1.3</ele>
        <time>2024-07-11T09:23:43Z</time>
      </trkpt>
      <trkpt lat="44.71224" lon="-1.22054">
        <ele>-0.34</ele>
        <time>2024-07-11T09:23:50Z</time>
      </trkpt>
      <trkpt lat="44.71223" lon="-1.22058">
        <ele>-0.34</ele>
        <time>2024-07-11T09:23:56Z</time>
      </trkpt>
      <trkpt lat="44.7122" lon="-1.22067">
        <ele>-0.34</ele>
        <time>2024-07-11T09:24:04Z</time>
      </trkpt>
      <trkpt lat="44.71218" lon="-1.22066">
        <ele>-1.3</ele>
        <time>2024-07-11T09:24:13Z</time>
      </trkpt>
      <trkpt lat="44.71218" lon="-1.22066">
        <ele>-4.67</ele>
        <time>2024-07-11T09:24:17Z</time>
      </trkpt>
      <trkpt lat="44.71219" lon="-1.22066">
        <ele>0.14</ele>
        <time>2024-07-11T09:24:18Z</time>
      </trkpt>
      <trkpt lat="44.71225" lon="-1.22069">
        <ele>-0.34</ele>
        <time>2024-07-11T09:24:33Z</time>
      </trkpt>
      <trkpt lat="44.71226" lon="-1.22069">
        <ele>-0.34</ele>
        <time>2024-07-11T09:24:43Z</time>
      </trkpt>
      <trkpt lat="44.71226" lon="-1.22069">
        <ele>-0.82</ele>
        <time>2024-07-11T09:24:45Z</time>
      </trkpt>
      <trkpt lat="44.71227" lon="-1.22067">
        <ele>-0.82</ele>
        <time>2024-07-11T09:27:16Z</time>
      </trkpt>
      <trkpt lat="44.7123" lon="-1.22067">
        <ele>-1.79</ele>
        <time>2024-07-11T09:27:27Z</time>
      </trkpt>
      <trkpt lat="44.71233" lon="-1.22066">
        <ele>-6.11</ele>
        <time>2024-07-11T09:27:32Z</time>
      </trkpt>
      <trkpt lat="44.71233" lon="-1.22065">
        <ele>-0.82</ele>
        <time>2024-07-11T09:27:33Z</time>
      </trkpt>
      <trkpt lat="44.7123" lon="-1.22056">
        <ele>-0.34</ele>
        <time>2024-07-11T09:27:41Z</time>
      </trkpt>
      <trkpt lat="44.7123" lon="-1.22055">
        <ele>-4.67</ele>
        <time>2024-07-11T09:27:43Z</time>
      </trkpt>
      <trkpt lat="44.7123" lon="-1.22054">
        <ele>-0.34</ele>
        <time>2024-07-11T09:27:44Z</time>
      </trkpt>
      <trkpt lat="44.7123" lon="-1.22053">
        <ele>-5.63</ele>
        <time>2024-07-11T09:27:45Z</time>
      </trkpt>
      <trkpt lat="44.71229" lon="-1.22052">
        <ele>1.1</ele>
        <time>2024-07-11T09:27:46Z</time>
      </trkpt>
      <trkpt lat="44.71228" lon="-1.2205">
        <ele>-3.71</ele>
        <time>2024-07-11T09:27:49Z</time>
      </trkpt>
      <trkpt lat="44.71226" lon="-1.22049">
        <ele>0.62</ele>
        <time>2024-07-11T09:27:50Z</time>
      </trkpt>
      <trkpt lat="44.71221" lon="-1.22043">
        <ele>-3.23</ele>
        <time>2024-07-11T09:27:56Z</time>
      </trkpt>
      <trkpt lat="44.7122" lon="-1.22042">
        <ele>1.1</ele>
        <time>2024-07-11T09:27:57Z</time>
      </trkpt>
      <trkpt lat="44.71219" lon="-1.2204">
        <ele>-2.75</ele>
        <time>2024-07-11T09:28:00Z</time>
      </trkpt>
      <trkpt lat="44.71218" lon="-1.22039">
        <ele>3.98</ele>
        <time>2024-07-11T09:28:01Z</time>
      </trkpt>
      <trkpt lat="44.71218" lon="-1.22039">
        <ele>-0.82</ele>
        <time>2024-07-11T09:28:02Z</time>
      </trkpt>
      <trkpt lat="44.71217" lon="-1.22038">
        <ele>-5.15</ele>
        <time>2024-07-11T09:28:03Z</time>
      </trkpt>
      <trkpt lat="44.71216" lon="-1.22038">
        <ele>4.94</ele>
        <time>2024-07-11T09:28:04Z</time>
      </trkpt>
      <trkpt lat="44.71215" lon="-1.22037">
        <ele>0.14</ele>
        <time>2024-07-11T09:28:05Z</time>
      </trkpt>
      <trkpt lat="44.71213" lon="-1.22035">
        <ele>-0.82</ele>
        <time>2024-07-11T09:28:07Z</time>
      </trkpt>
      <trkpt lat="44.71212" lon="-1.22035">
        <ele>-5.15</ele>
        <time>2024-07-11T09:28:08Z</time>
      </trkpt>
      <trkpt lat="44.71211" lon="-1.22034">
        <ele>2.06</ele>
        <time>2024-07-11T09:28:09Z</time>
      </trkpt>
      <trkpt lat="44.71208" lon="-1.22032">
        <ele>-2.27</ele>
        <time>2024-07-11T09:28:13Z</time>
      </trkpt>
      <trkpt lat="44.71205" lon="-1.22031">
        <ele>3.02</ele>
        <time>2024-07-11T09:28:16Z</time>
      </trkpt>
      <trkpt lat="44.71205" lon="-1.22031">
        <ele>-0.34</ele>
        <time>2024-07-11T09:28:17Z</time>
      </trkpt>
      <trkpt lat="44.71203" lon="-1.22031">
        <ele>3.5</ele>
        <time>2024-07-11T09:28:19Z</time>
      </trkpt>
      <trkpt lat="44.71203" lon="-1.22031">
        <ele>-3.23</ele>
        <time>2024-07-11T09:28:20Z</time>
      </trkpt>
      <trkpt lat="44.71202" lon="-1.22031">
        <ele>3.5</ele>
        <time>2024-07-11T09:28:21Z</time>
      </trkpt>
      <trkpt lat="44.71202" lon="-1.22031">
        <ele>-0.82</ele>
        <time>2024-07-11T09:28:22Z</time>
      </trkpt>
      <trkpt lat="44.71199" lon="-1.22031">
        <ele>3.02</ele>
        <time>2024-07-11T09:28:26Z</time>
      </trkpt>
      <trkpt lat="44.71198" lon="-1.22031">
        <ele>-0.34</ele>
        <time>2024-07-11T09:28:28Z</time>
      </trkpt>
    </trkseg>
  </trk>
</gpx>